<?xml version='1.0' encoding='UTF-8'?><gpx version="1.1" creator="JPX - https://github.com/jenetics/jpx" xmlns="http://www.topografix.com/GPX/1/1"><trk><trkseg><trkpt lat="45.77653178490953" lon="8.97780655879129"><ele>405.0</ele><time>2026-04-11T04:44:34Z</time></trkpt><trkpt lat="45.77658390609789" lon="8.977730062383795"><ele>405.0</ele><time>2026-04-11T04:44:36Z</time></trkpt><trkpt lat="45.7766456107875" lon="8.977646351814899"><ele>405.0</ele><time>2026-04-11T04:44:38Z</time></trkpt><trkpt lat="45.776657257217266" lon="8.977487310728213"><ele>405.0</ele><time>2026-04-11T04:44:40Z</time></trkpt><trkpt lat="45.77672659867993" lon="8.977418143713981"><ele>405.0</ele><time>2026-04-11T04:44:42Z</time></trkpt><trkpt lat="45.77679607988706" lon="8.977343369254708"><ele>405.0</ele><time>2026-04-11T04:44:44Z</time></trkpt><trkpt lat="45.776856033633315" lon="8.97725702933963"><ele>405.1666666666667</ele><time>2026-04-11T04:44:46Z</time></trkpt><trkpt lat="45.77689482829033" lon="8.977146731037829"><ele>405.33333333333337</ele><time>2026-04-11T04:44:48Z</time></trkpt><trkpt lat="45.7769308402342" lon="8.977035720985288"><ele>405.5</ele><time>2026-04-11T04:44:50Z</time></trkpt><trkpt lat="45.776990104882366" lon="8.976925819265434"><ele>405.6666666666667</ele><time>2026-04-11T04:44:52Z</time></trkpt><trkpt lat="45.77704515160642" lon="8.976850580336643"><ele>405.83333333333337</ele><time>2026-04-11T04:44:54Z</time></trkpt><trkpt lat="45.77709598419884" lon="8.97676614863446"><ele>406.0</ele><time>2026-04-11T04:44:56Z</time></trkpt><trkpt lat="45.77716319391156" lon="8.976687837284226"><ele>406.00000000000006</ele><time>2026-04-11T04:44:58Z</time></trkpt><trkpt lat="45.77723188825911" lon="8.976614494259227"><ele>406.0</ele><time>2026-04-11T04:45:00Z</time></trkpt><trkpt lat="45.777298851906785" lon="8.976535880677021"><ele>406.0</ele><time>2026-04-11T04:45:02Z</time></trkpt><trkpt lat="45.77736640421723" lon="8.976455793492462"><ele>406.0</ele><time>2026-04-11T04:45:04Z</time></trkpt><trkpt lat="45.7774292124796" lon="8.976377853773917"><ele>406.00000000000006</ele><time>2026-04-11T04:45:06Z</time></trkpt><trkpt lat="45.77749459752564" lon="8.976301805799112"><ele>406.0</ele><time>2026-04-11T04:45:08Z</time></trkpt><trkpt lat="45.77755753073354" lon="8.976221102965637"><ele>406.00000000000006</ele><time>2026-04-11T04:45:10Z</time></trkpt><trkpt lat="45.7776215864884" lon="8.976139791525528"><ele>406.0</ele><time>2026-04-11T04:45:12Z</time></trkpt><trkpt lat="45.77768543401064" lon="8.976060465340241"><ele>406.0</ele><time>2026-04-11T04:45:14Z</time></trkpt><trkpt lat="45.77774426659574" lon="8.975986758861525"><ele>406.0</ele><time>2026-04-11T04:45:16Z</time></trkpt><trkpt lat="45.77779921683205" lon="8.975913693519445"><ele>406.00000000000006</ele><time>2026-04-11T04:45:18Z</time></trkpt><trkpt lat="45.777859759201405" lon="8.97584125288168"><ele>406.0</ele><time>2026-04-11T04:45:20Z</time></trkpt><trkpt lat="45.77791924196857" lon="8.975765066897278"><ele>406.33333333333337</ele><time>2026-04-11T04:45:22Z</time></trkpt><trkpt lat="45.77797652068691" lon="8.97569079538126"><ele>406.6666666666667</ele><time>2026-04-11T04:45:24Z</time></trkpt><trkpt lat="45.77802996723026" lon="8.975621586490927"><ele>407.0</ele><time>2026-04-11T04:45:26Z</time></trkpt><trkpt lat="45.7780667949855" lon="8.975514166818455"><ele>407.33333333333337</ele><time>2026-04-11T04:45:29Z</time></trkpt><trkpt lat="45.77801425608956" lon="8.975431801189433"><ele>407.6666666666667</ele><time>2026-04-11T04:45:33Z</time></trkpt><trkpt lat="45.77808208085204" lon="8.975402877289504"><ele>408.0</ele><time>2026-04-11T04:45:36Z</time></trkpt><trkpt lat="45.778164790162535" lon="8.97541994920089"><ele>408.0</ele><time>2026-04-11T04:45:38Z</time></trkpt><trkpt lat="45.77822781719257" lon="8.975357747507113"><ele>408.0</ele><time>2026-04-11T04:45:40Z</time></trkpt><trkpt lat="45.77828724777655" lon="8.975284275775168"><ele>408.0</ele><time>2026-04-11T04:45:42Z</time></trkpt><trkpt lat="45.77833567807677" lon="8.975211224310527"><ele>408.0</ele><time>2026-04-11T04:45:44Z</time></trkpt><trkpt lat="45.77838104259413" lon="8.975143238797937"><ele>408.0</ele><time>2026-04-11T04:45:46Z</time></trkpt><trkpt lat="45.77844434615916" lon="8.9750850853577"><ele>408.0</ele><time>2026-04-11T04:45:48Z</time></trkpt><trkpt lat="45.778493568958446" lon="8.975009648861342"><ele>408.0</ele><time>2026-04-11T04:45:50Z</time></trkpt><trkpt lat="45.77857008799809" lon="8.974944003034754"><ele>408.3333333333333</ele><time>2026-04-11T04:45:52Z</time></trkpt><trkpt lat="45.778648405428854" lon="8.974894557035455"><ele>408.66666666666663</ele><time>2026-04-11T04:45:54Z</time></trkpt><trkpt lat="45.77872050050479" lon="8.974841681149087"><ele>409.0</ele><time>2026-04-11T04:45:56Z</time></trkpt><trkpt lat="45.77878814603599" lon="8.97479107383593"><ele>409.3333333333333</ele><time>2026-04-11T04:45:58Z</time></trkpt><trkpt lat="45.778796835422234" lon="8.974687690016847"><ele>409.66666666666663</ele><time>2026-04-11T04:46:00Z</time></trkpt><trkpt lat="45.77882155045989" lon="8.97454889852507"><ele>410.0</ele><time>2026-04-11T04:46:02Z</time></trkpt><trkpt lat="45.77889859039459" lon="8.974424770250303"><ele>410.0</ele><time>2026-04-11T04:46:04Z</time></trkpt><trkpt lat="45.77896502289946" lon="8.974419424198064"><ele>410.0</ele><time>2026-04-11T04:46:05Z</time></trkpt><trkpt lat="45.77901089739464" lon="8.974352378888563"><ele>410.0</ele><time>2026-04-11T04:46:07Z</time></trkpt><trkpt lat="45.77887098860234" lon="8.974203185674845"><ele>410.0</ele><time>2026-04-11T04:46:11Z</time></trkpt><trkpt lat="45.77878143849292" lon="8.974198644404966"><ele>410.0</ele><time>2026-04-11T04:46:13Z</time></trkpt><trkpt lat="45.77869054048496" lon="8.9741830997238"><ele>409.6</ele><time>2026-04-11T04:46:15Z</time></trkpt><trkpt lat="45.77859663319583" lon="8.974129178639162"><ele>409.2</ele><time>2026-04-11T04:46:17Z</time></trkpt><trkpt lat="45.77850333877117" lon="8.974060799668731"><ele>408.79999999999995</ele><time>2026-04-11T04:46:19Z</time></trkpt><trkpt lat="45.77840130512521" lon="8.973999144903662"><ele>408.4</ele><time>2026-04-11T04:46:20.999Z</time></trkpt><trkpt lat="45.77829405419291" lon="8.97394299375265"><ele>408.0</ele><time>2026-04-11T04:46:22.999Z</time></trkpt><trkpt lat="45.77818817051305" lon="8.973892622178104"><ele>408.0</ele><time>2026-04-11T04:46:24.999Z</time></trkpt><trkpt lat="45.77807333654201" lon="8.97384615813928"><ele>408.0</ele><time>2026-04-11T04:46:26.999Z</time></trkpt><trkpt lat="45.77796572268221" lon="8.973813627191761"><ele>408.0</ele><time>2026-04-11T04:46:28.999Z</time></trkpt><trkpt lat="45.77785038575379" lon="8.973784144825794"><ele>408.0</ele><time>2026-04-11T04:46:30.999Z</time></trkpt><trkpt lat="45.77773991938498" lon="8.973738017593837"><ele>407.0</ele><time>2026-04-11T04:46:32.999Z</time></trkpt><trkpt lat="45.77762955340143" lon="8.973685292109094"><ele>406.0</ele><time>2026-04-11T04:46:34.999Z</time></trkpt><trkpt lat="45.777515299424266" lon="8.973632621453419"><ele>405.0</ele><time>2026-04-11T04:46:36.999Z</time></trkpt><trkpt lat="45.77740153525793" lon="8.97357015472893"><ele>404.0</ele><time>2026-04-11T04:46:38.999Z</time></trkpt><trkpt lat="45.777341004356636" lon="8.973536449653137"><ele>403.0</ele><time>2026-04-11T04:46:39.999Z</time></trkpt><trkpt lat="45.77727889352309" lon="8.973511101030908"><ele>403.0</ele><time>2026-04-11T04:46:40.999Z</time></trkpt><trkpt lat="45.77716897586699" lon="8.973445608793135"><ele>403.0</ele><time>2026-04-11T04:46:43Z</time></trkpt><trkpt lat="45.77711116655791" lon="8.973405738436211"><ele>403.0</ele><time>2026-04-11T04:46:44Z</time></trkpt><trkpt lat="45.777046679352715" lon="8.973373551413415"><ele>403.0</ele><time>2026-04-11T04:46:45Z</time></trkpt><trkpt lat="45.776933289891296" lon="8.973315082800976"><ele>403.0</ele><time>2026-04-11T04:46:47Z</time></trkpt><trkpt lat="45.776827307911645" lon="8.973261319510867"><ele>402.6666666666667</ele><time>2026-04-11T04:46:49Z</time></trkpt><trkpt lat="45.776726763070705" lon="8.973208593903987"><ele>402.33333333333337</ele><time>2026-04-11T04:46:51Z</time></trkpt><trkpt lat="45.77665173592468" lon="8.973176353089457"><ele>402.0</ele><time>2026-04-11T04:46:53Z</time></trkpt><trkpt lat="45.77659362200019" lon="8.973135147434785"><ele>401.66666666666663</ele><time>2026-04-11T04:47:24Z</time></trkpt><trkpt lat="45.77652481774886" lon="8.973110939676866"><ele>401.3333333333333</ele><time>2026-04-11T04:47:26Z</time></trkpt><trkpt lat="45.77644687481516" lon="8.973081990727222"><ele>401.0</ele><time>2026-04-11T04:47:28Z</time></trkpt><trkpt lat="45.7763538402327" lon="8.973047165330224"><ele>401.0</ele><time>2026-04-11T04:47:30Z</time></trkpt><trkpt lat="45.77625139671967" lon="8.973010929326431"><ele>401.0</ele><time>2026-04-11T04:47:32Z</time></trkpt><trkpt lat="45.77614295522326" lon="8.97297046512594"><ele>401.0</ele><time>2026-04-11T04:47:34Z</time></trkpt><trkpt lat="45.77603419371521" lon="8.972933091064691"><ele>401.0</ele><time>2026-04-11T04:47:36Z</time></trkpt><trkpt lat="45.77592416257606" lon="8.97289182781466"><ele>401.0</ele><time>2026-04-11T04:47:38Z</time></trkpt><trkpt lat="45.77582004114914" lon="8.972843028546382"><ele>400.6</ele><time>2026-04-11T04:47:40Z</time></trkpt><trkpt lat="45.77571562037554" lon="8.972793015560663"><ele>400.20000000000005</ele><time>2026-04-11T04:47:42Z</time></trkpt><trkpt lat="45.775616451738294" lon="8.972725744654644"><ele>399.79999999999995</ele><time>2026-04-11T04:47:44Z</time></trkpt><trkpt lat="45.775526000850356" lon="8.972646210581114"><ele>399.4</ele><time>2026-04-11T04:47:46Z</time></trkpt><trkpt lat="45.775442214141535" lon="8.972559972099932"><ele>399.0</ele><time>2026-04-11T04:47:48Z</time></trkpt><trkpt lat="45.77538395666377" lon="8.972469281415883"><ele>398.5</ele><time>2026-04-11T04:47:50Z</time></trkpt><trkpt lat="45.77539064926895" lon="8.972336820965253"><ele>398.0</ele><time>2026-04-11T04:47:52Z</time></trkpt><trkpt lat="45.775446938831244" lon="8.97221728227813"><ele>397.5</ele><time>2026-04-11T04:47:54Z</time></trkpt><trkpt lat="45.775498802300895" lon="8.97211335399574"><ele>397.0</ele><time>2026-04-11T04:47:56Z</time></trkpt><trkpt lat="45.775531251253916" lon="8.972025232465388"><ele>396.5</ele><time>2026-04-11T04:47:58Z</time></trkpt><trkpt lat="45.77555865340458" lon="8.971910122995887"><ele>396.0</ele><time>2026-04-11T04:47:59Z</time></trkpt><trkpt lat="45.7756188457555" lon="8.971796503081551"><ele>395.8</ele><time>2026-04-11T04:48:01Z</time></trkpt><trkpt lat="45.77567393372445" lon="8.97168896260644"><ele>395.6</ele><time>2026-04-11T04:48:03Z</time></trkpt><trkpt lat="45.77573043790483" lon="8.971573291788504"><ele>395.4</ele><time>2026-04-11T04:48:05Z</time></trkpt><trkpt lat="45.775769590565055" lon="8.97145735702361"><ele>395.2</ele><time>2026-04-11T04:48:07Z</time></trkpt><trkpt lat="45.77581577755917" lon="8.971347860871335"><ele>395.0</ele><time>2026-04-11T04:48:09Z</time></trkpt><trkpt lat="45.77585297893709" lon="8.971234826573522"><ele>394.99999999999994</ele><time>2026-04-11T04:48:11Z</time></trkpt><trkpt lat="45.77588044621097" lon="8.971111290675607"><ele>395.0</ele><time>2026-04-11T04:48:13Z</time></trkpt><trkpt lat="45.775907752765875" lon="8.970986233092365"><ele>395.0</ele><time>2026-04-11T04:48:15Z</time></trkpt><trkpt lat="45.77592883628465" lon="8.97086768141453"><ele>395.0</ele><time>2026-04-11T04:48:17Z</time></trkpt><trkpt lat="45.77594655544689" lon="8.970745134320484"><ele>394.99999999999994</ele><time>2026-04-11T04:48:19Z</time></trkpt><trkpt lat="45.775977400884635" lon="8.970631762574172"><ele>395.0</ele><time>2026-04-11T04:48:21Z</time></trkpt><trkpt lat="45.77601931370365" lon="8.970527261479445"><ele>395.3333333333333</ele><time>2026-04-11T04:48:23Z</time></trkpt><trkpt lat="45.776035363647004" lon="8.970408320865658"><ele>395.66666666666663</ele><time>2026-04-11T04:48:25Z</time></trkpt><trkpt lat="45.77606206632469" lon="8.970286436605564"><ele>396.0</ele><time>2026-04-11T04:48:27Z</time></trkpt><trkpt lat="45.77607825855038" lon="8.970180356602457"><ele>396.33333333333337</ele><time>2026-04-11T04:48:29Z</time></trkpt><trkpt lat="45.77609734438871" lon="8.970056510115153"><ele>396.6666666666667</ele><time>2026-04-11T04:48:31Z</time></trkpt><trkpt lat="45.77614348568067" lon="8.969954912215261"><ele>397.0</ele><time>2026-04-11T04:48:33Z</time></trkpt><trkpt lat="45.77619565481379" lon="8.96985650327789"><ele>397.1666666666667</ele><time>2026-04-11T04:48:35Z</time></trkpt><trkpt lat="45.77626570558314" lon="8.969778426525892"><ele>397.33333333333337</ele><time>2026-04-11T04:48:37Z</time></trkpt><trkpt lat="45.77631846034928" lon="8.969705502052934"><ele>397.5</ele><time>2026-04-11T04:48:39Z</time></trkpt><trkpt lat="45.77636321362679" lon="8.96961650217311"><ele>397.66666666666663</ele><time>2026-04-11T04:48:41Z</time></trkpt><trkpt lat="45.776419933515854" lon="8.9695428305452"><ele>397.8333333333333</ele><time>2026-04-11T04:48:43Z</time></trkpt><trkpt lat="45.77648248722602" lon="8.9694888723499"><ele>398.0</ele><time>2026-04-11T04:48:45Z</time></trkpt><trkpt lat="45.77652697834533" lon="8.969410928855822"><ele>397.99999999999994</ele><time>2026-04-11T04:48:47Z</time></trkpt><trkpt lat="45.77659199948049" lon="8.969307294963816"><ele>398.0</ele><time>2026-04-11T04:48:50Z</time></trkpt><trkpt lat="45.776640330998355" lon="8.969232065983071"><ele>398.0</ele><time>2026-04-11T04:48:52Z</time></trkpt><trkpt lat="45.77669684557545" lon="8.969150679692074"><ele>398.0</ele><time>2026-04-11T04:48:54Z</time></trkpt><trkpt lat="45.77671743776987" lon="8.969022488367635"><ele>397.99999999999994</ele><time>2026-04-11T04:48:56Z</time></trkpt><trkpt lat="45.77671519517727" lon="8.968889188500027"><ele>398.0</ele><time>2026-04-11T04:48:58Z</time></trkpt><trkpt lat="45.77673080472049" lon="8.968754711551885"><ele>397.79999999999995</ele><time>2026-04-11T04:49:00Z</time></trkpt><trkpt lat="45.77676666170421" lon="8.968616790463011"><ele>397.6</ele><time>2026-04-11T04:49:02Z</time></trkpt><trkpt lat="45.77682194111837" lon="8.96847733825018"><ele>397.4</ele><time>2026-04-11T04:49:04Z</time></trkpt><trkpt lat="45.77689852444516" lon="8.968347034765632"><ele>397.20000000000005</ele><time>2026-04-11T04:49:06Z</time></trkpt><trkpt lat="45.77693840695861" lon="8.968274893883278"><ele>397.0</ele><time>2026-04-11T04:49:07Z</time></trkpt><trkpt lat="45.77699342653566" lon="8.968225991951087"><ele>396.7142857142857</ele><time>2026-04-11T04:49:08Z</time></trkpt><trkpt lat="45.77702963046669" lon="8.968131882952456"><ele>396.42857142857144</ele><time>2026-04-11T04:49:09Z</time></trkpt><trkpt lat="45.77707288684985" lon="8.968053689279689"><ele>396.1428571428571</ele><time>2026-04-11T04:49:10Z</time></trkpt><trkpt lat="45.777113552680326" lon="8.967969155065619"><ele>395.8571428571429</ele><time>2026-04-11T04:49:11Z</time></trkpt><trkpt lat="45.77714351576192" lon="8.967878584850858"><ele>395.5714285714286</ele><time>2026-04-11T04:49:12Z</time></trkpt><trkpt lat="45.77716162504246" lon="8.967781001632144"><ele>395.2857142857143</ele><time>2026-04-11T04:49:13Z</time></trkpt><trkpt lat="45.7771678389998" lon="8.967683538308318"><ele>395.0</ele><time>2026-04-11T04:49:14Z</time></trkpt><trkpt lat="45.777173371351466" lon="8.96758144075239"><ele>394.7142857142857</ele><time>2026-04-11T04:49:15Z</time></trkpt><trkpt lat="45.777165485970684" lon="8.967480396887332"><ele>394.42857142857144</ele><time>2026-04-11T04:49:16Z</time></trkpt><trkpt lat="45.77715930618055" lon="8.967383345178595"><ele>394.14285714285717</ele><time>2026-04-11T04:49:17Z</time></trkpt><trkpt lat="45.77711775704128" lon="8.967298203861446"><ele>393.8571428571429</ele><time>2026-04-11T04:49:18Z</time></trkpt><trkpt lat="45.77708838981709" lon="8.967213438458774"><ele>393.57142857142856</ele><time>2026-04-11T04:49:19Z</time></trkpt><trkpt lat="45.77704389196446" lon="8.967141405856346"><ele>393.28571428571433</ele><time>2026-04-11T04:49:20Z</time></trkpt><trkpt lat="45.777014745914336" lon="8.967056970290773"><ele>393.0</ele><time>2026-04-11T04:49:21Z</time></trkpt><trkpt lat="45.776978848156105" lon="8.966982175689424"><ele>393.0</ele><time>2026-04-11T04:49:22Z</time></trkpt><trkpt lat="45.776917515985964" lon="8.966876699004828"><ele>393.0</ele><time>2026-04-11T04:49:24Z</time></trkpt><trkpt lat="45.77698109556639" lon="8.96676766721913"><ele>393.0</ele><time>2026-04-11T04:49:27Z</time></trkpt><trkpt lat="45.77706823782702" lon="8.966687732931305"><ele>393.0</ele><time>2026-04-11T04:49:29Z</time></trkpt><trkpt lat="45.777130277641184" lon="8.966607625825457"><ele>393.0</ele><time>2026-04-11T04:49:31Z</time></trkpt><trkpt lat="45.77719246966772" lon="8.966563093716669"><ele>393.4</ele><time>2026-04-11T04:49:33Z</time></trkpt><trkpt lat="45.77714374844703" lon="8.966422479835654"><ele>393.79999999999995</ele><time>2026-04-11T04:49:35Z</time></trkpt><trkpt lat="45.77707933922144" lon="8.966311238993395"><ele>394.2</ele><time>2026-04-11T04:49:37Z</time></trkpt><trkpt lat="45.77700334214167" lon="8.966229871433653"><ele>394.6</ele><time>2026-04-11T04:49:39.001Z</time></trkpt><trkpt lat="45.7769693443007" lon="8.966112557511986"><ele>395.0</ele><time>2026-04-11T04:49:41.001Z</time></trkpt><trkpt lat="45.776973257774124" lon="8.965972956420002"><ele>395.0</ele><time>2026-04-11T04:49:43.001Z</time></trkpt><trkpt lat="45.77700747599851" lon="8.965845219867113"><ele>395.0</ele><time>2026-04-11T04:49:45.001Z</time></trkpt><trkpt lat="45.777015805775925" lon="8.96571510658429"><ele>395.0</ele><time>2026-04-11T04:49:47.001Z</time></trkpt><trkpt lat="45.77700979802108" lon="8.965595296406399"><ele>395.0</ele><time>2026-04-11T04:49:49.001Z</time></trkpt><trkpt lat="45.77696488555736" lon="8.965493264661713"><ele>395.0</ele><time>2026-04-11T04:49:51.001Z</time></trkpt><trkpt lat="45.77691069776782" lon="8.96538037255788"><ele>395.0</ele><time>2026-04-11T04:49:53.001Z</time></trkpt><trkpt lat="45.77682652370098" lon="8.96531512536094"><ele>395.0</ele><time>2026-04-11T04:49:55.001Z</time></trkpt><trkpt lat="45.776741829084585" lon="8.965259195716424"><ele>395.0</ele><time>2026-04-11T04:49:57.001Z</time></trkpt><trkpt lat="45.77672138493812" lon="8.965121277294253"><ele>395.0</ele><time>2026-04-11T04:49:59.001Z</time></trkpt><trkpt lat="45.77672470130592" lon="8.964957272115857"><ele>395.0</ele><time>2026-04-11T04:50:01.001Z</time></trkpt><trkpt lat="45.776706272917814" lon="8.964797128174842"><ele>394.8333333333333</ele><time>2026-04-11T04:50:03.001Z</time></trkpt><trkpt lat="45.7766689499959" lon="8.964637976003221"><ele>394.66666666666663</ele><time>2026-04-11T04:50:05.001Z</time></trkpt><trkpt lat="45.77663712292068" lon="8.964557263801598"><ele>394.5</ele><time>2026-04-11T04:50:06.001Z</time></trkpt><trkpt lat="45.77660515687908" lon="8.964472244113166"><ele>394.33333333333337</ele><time>2026-04-11T04:50:07.001Z</time></trkpt><trkpt lat="45.776569801114356" lon="8.964383444990963"><ele>394.1666666666667</ele><time>2026-04-11T04:50:08.001Z</time></trkpt><trkpt lat="45.776555693917224" lon="8.964283604028768"><ele>394.0</ele><time>2026-04-11T04:50:09.001Z</time></trkpt><trkpt lat="45.776533872566404" lon="8.964190108596421"><ele>393.33333333333337</ele><time>2026-04-11T04:50:10.001Z</time></trkpt><trkpt lat="45.776508003216584" lon="8.964097647645259"><ele>392.6666666666667</ele><time>2026-04-11T04:50:11.001Z</time></trkpt><trkpt lat="45.776482696831096" lon="8.964007199943195"><ele>392.0</ele><time>2026-04-11T04:50:12.001Z</time></trkpt><trkpt lat="45.77646073694478" lon="8.963921710119761"><ele>391.33333333333337</ele><time>2026-04-11T04:50:13.001Z</time></trkpt><trkpt lat="45.77647898578299" lon="8.963770134890906"><ele>390.6666666666667</ele><time>2026-04-11T04:50:15.001Z</time></trkpt><trkpt lat="45.77655095713787" lon="8.963745465377036"><ele>390.0</ele><time>2026-04-11T04:50:16.001Z</time></trkpt><trkpt lat="45.776584328796744" lon="8.963618196564903"><ele>390.0</ele><time>2026-04-11T04:50:18.001Z</time></trkpt><trkpt lat="45.77647634971071" lon="8.963481806297871"><ele>390.0</ele><time>2026-04-11T04:50:20.001Z</time></trkpt><trkpt lat="45.77639698366447" lon="8.963384077465184"><ele>390.0</ele><time>2026-04-11T04:50:22.001Z</time></trkpt><trkpt lat="45.77634505042934" lon="8.963284747735392"><ele>390.0</ele><time>2026-04-11T04:50:24.001Z</time></trkpt><trkpt lat="45.776287145243984" lon="8.963187874946591"><ele>390.0</ele><time>2026-04-11T04:50:26.001Z</time></trkpt><trkpt lat="45.77623408718865" lon="8.963086921515577"><ele>390.0</ele><time>2026-04-11T04:50:28.001Z</time></trkpt><trkpt lat="45.77610719599882" lon="8.963206311276904"><ele>390.0</ele><time>2026-04-11T04:50:29.001Z</time></trkpt><trkpt lat="45.775992054826276" lon="8.96319475786014"><ele>390.0</ele><time>2026-04-11T04:50:31.001Z</time></trkpt><trkpt lat="45.77593220069162" lon="8.963159071764784"><ele>390.0</ele><time>2026-04-11T04:50:32Z</time></trkpt><trkpt lat="45.77583073318733" lon="8.963089572616022"><ele>390.0</ele><time>2026-04-11T04:50:34Z</time></trkpt><trkpt lat="45.775725829362656" lon="8.963040004388695"><ele>390.0</ele><time>2026-04-11T04:50:36Z</time></trkpt><trkpt lat="45.77562101575721" lon="8.962999045159613"><ele>390.0</ele><time>2026-04-11T04:50:38Z</time></trkpt><trkpt lat="45.77552813642369" lon="8.962957986820332"><ele>390.0</ele><time>2026-04-11T04:50:40Z</time></trkpt><trkpt lat="45.77545149147118" lon="8.962918318825114"><ele>390.0</ele><time>2026-04-11T04:50:42Z</time></trkpt><trkpt lat="45.77537823839224" lon="8.962865734369418"><ele>390.0</ele><time>2026-04-11T04:50:44Z</time></trkpt><trkpt lat="45.77530562010288" lon="8.962835306336867"><ele>390.0</ele><time>2026-04-11T04:50:46Z</time></trkpt><trkpt lat="45.77523666790532" lon="8.962778792973973"><ele>390.33333333333337</ele><time>2026-04-11T04:50:48Z</time></trkpt><trkpt lat="45.77517530064098" lon="8.962726682261415"><ele>390.6666666666667</ele><time>2026-04-11T04:50:51Z</time></trkpt><trkpt lat="45.7751169589239" lon="8.962774638855365"><ele>391.0</ele><time>2026-04-11T04:50:53Z</time></trkpt><trkpt lat="45.77629423704536" lon="8.963045831778052"><ele>390.6</ele><time>2026-04-11T04:59:23.001Z</time></trkpt><trkpt lat="45.77635990925671" lon="8.962969388821127"><ele>390.20000000000005</ele><time>2026-04-11T04:59:25.001Z</time></trkpt><trkpt lat="45.776435053018645" lon="8.962885821246507"><ele>389.79999999999995</ele><time>2026-04-11T04:59:27.001Z</time></trkpt><trkpt lat="45.776504958091095" lon="8.962803259500268"><ele>389.4</ele><time>2026-04-11T04:59:29.001Z</time></trkpt><trkpt lat="45.77656496218576" lon="8.962719010959573"><ele>389.0</ele><time>2026-04-11T04:59:31.001Z</time></trkpt><trkpt lat="45.776632877700045" lon="8.962623171212778"><ele>389.16666666666663</ele><time>2026-04-11T04:59:33.001Z</time></trkpt><trkpt lat="45.77669441068024" lon="8.962520682951055"><ele>389.3333333333333</ele><time>2026-04-11T04:59:35.001Z</time></trkpt><trkpt lat="45.77676045015449" lon="8.962441491165615"><ele>389.5</ele><time>2026-04-11T04:59:37.001Z</time></trkpt><trkpt lat="45.7768142119202" lon="8.96235069852353"><ele>389.66666666666663</ele><time>2026-04-11T04:59:39.001Z</time></trkpt><trkpt lat="45.77688039983339" lon="8.962286174029652"><ele>389.8333333333333</ele><time>2026-04-11T04:59:41.001Z</time></trkpt><trkpt lat="45.776935662166686" lon="8.962213503821543"><ele>390.0</ele><time>2026-04-11T04:59:43.001Z</time></trkpt><trkpt lat="45.777001382979456" lon="8.962127072975765"><ele>390.0</ele><time>2026-04-11T04:59:45.001Z</time></trkpt><trkpt lat="45.777065687987374" lon="8.962042504187473"><ele>390.0</ele><time>2026-04-11T04:59:47Z</time></trkpt><trkpt lat="45.77711413351913" lon="8.961978792520867"><ele>390.0</ele><time>2026-04-11T04:59:49Z</time></trkpt><trkpt lat="45.77718852067487" lon="8.961880964286772"><ele>390.0</ele><time>2026-04-11T04:59:52Z</time></trkpt><trkpt lat="45.777243335653786" lon="8.961808874455906"><ele>390.0</ele><time>2026-04-11T04:59:54Z</time></trkpt><trkpt lat="45.777303777598895" lon="8.961719396721115"><ele>390.0</ele><time>2026-04-11T04:59:57Z</time></trkpt><trkpt lat="45.777371391566646" lon="8.961690242777637"><ele>390.0</ele><time>2026-04-11T05:00:06Z</time></trkpt><trkpt lat="45.777349978893206" lon="8.961538548441677"><ele>390.0</ele><time>2026-04-11T05:00:10Z</time></trkpt><trkpt lat="45.77730216627227" lon="8.961462700649857"><ele>390.0</ele><time>2026-04-11T05:00:12Z</time></trkpt><trkpt lat="45.77724358083004" lon="8.961356576696353"><ele>390.0</ele><time>2026-04-11T05:00:15Z</time></trkpt><trkpt lat="45.777200796950595" lon="8.961287162073123"><ele>390.0</ele><time>2026-04-11T05:00:17Z</time></trkpt><trkpt lat="45.77716098292218" lon="8.961214471470855"><ele>390.0</ele><time>2026-04-11T05:00:19Z</time></trkpt><trkpt lat="45.777109519152866" lon="8.96113717355386"><ele>390.0</ele><time>2026-04-11T05:00:21Z</time></trkpt><trkpt lat="45.777094153294925" lon="8.961008973584873"><ele>390.0</ele><time>2026-04-11T05:00:23Z</time></trkpt><trkpt lat="45.777060391792105" lon="8.960884231143302"><ele>390.0</ele><time>2026-04-11T05:00:25Z</time></trkpt><trkpt lat="45.776974168823436" lon="8.960798432074172"><ele>390.0</ele><time>2026-04-11T05:00:27Z</time></trkpt><trkpt lat="45.77686602119577" lon="8.960790187322766"><ele>390.0</ele><time>2026-04-11T05:00:29Z</time></trkpt><trkpt lat="45.77675486314407" lon="8.960817854838691"><ele>390.6</ele><time>2026-04-11T05:00:31Z</time></trkpt><trkpt lat="45.776639943164156" lon="8.960827742341404"><ele>391.2</ele><time>2026-04-11T05:00:33Z</time></trkpt><trkpt lat="45.776532861262616" lon="8.960804121544225"><ele>391.79999999999995</ele><time>2026-04-11T05:00:35Z</time></trkpt><trkpt lat="45.77642704111388" lon="8.960780590828666"><ele>392.4</ele><time>2026-04-11T05:00:37Z</time></trkpt><trkpt lat="45.77631126627545" lon="8.960746409700786"><ele>393.0</ele><time>2026-04-11T05:00:39Z</time></trkpt><trkpt lat="45.77620376105691" lon="8.960672676800545"><ele>393.0</ele><time>2026-04-11T05:00:41Z</time></trkpt><trkpt lat="45.77611751834673" lon="8.96060809977403"><ele>393.0</ele><time>2026-04-11T05:00:43Z</time></trkpt><trkpt lat="45.7760497137356" lon="8.960564911728772"><ele>393.0</ele><time>2026-04-11T05:00:44Z</time></trkpt><trkpt lat="45.77594608149442" lon="8.96049413043719"><ele>393.0</ele><time>2026-04-11T05:00:46Z</time></trkpt><trkpt lat="45.77584384057324" lon="8.96042556520665"><ele>393.0</ele><time>2026-04-11T05:00:48Z</time></trkpt><trkpt lat="45.77575023492598" lon="8.960360265265605"><ele>392.4</ele><time>2026-04-11T05:00:50Z</time></trkpt><trkpt lat="45.77566153030493" lon="8.960305165931503"><ele>391.79999999999995</ele><time>2026-04-11T05:00:52Z</time></trkpt><trkpt lat="45.77557783741047" lon="8.960246486585287"><ele>391.2</ele><time>2026-04-11T05:00:54Z</time></trkpt><trkpt lat="45.77549558439294" lon="8.960186541406426"><ele>390.6</ele><time>2026-04-11T05:00:56Z</time></trkpt><trkpt lat="45.775414327294044" lon="8.96013498706945"><ele>390.0</ele><time>2026-04-11T05:00:58Z</time></trkpt><trkpt lat="45.77533615554987" lon="8.960078515838962"><ele>390.3333333333333</ele><time>2026-04-11T05:01:00Z</time></trkpt><trkpt lat="45.77525927589241" lon="8.960032015398832"><ele>390.66666666666663</ele><time>2026-04-11T05:01:02Z</time></trkpt><trkpt lat="45.77519800289315" lon="8.9599756740309"><ele>391.0</ele><time>2026-04-11T05:01:04Z</time></trkpt><trkpt lat="45.77512076522925" lon="8.959926130157049"><ele>391.3333333333333</ele><time>2026-04-11T05:01:06Z</time></trkpt><trkpt lat="45.775055589566996" lon="8.959880216298211"><ele>391.66666666666663</ele><time>2026-04-11T05:01:08Z</time></trkpt><trkpt lat="45.77498201403045" lon="8.95983091052937"><ele>392.0</ele><time>2026-04-11T05:01:10Z</time></trkpt><trkpt lat="45.77491011708479" lon="8.95978158272129"><ele>391.99999999999994</ele><time>2026-04-11T05:01:12Z</time></trkpt><trkpt lat="45.77483291161282" lon="8.959731039003962"><ele>392.0</ele><time>2026-04-11T05:01:14Z</time></trkpt><trkpt lat="45.77476533700573" lon="8.959683800919729"><ele>392.0</ele><time>2026-04-11T05:01:16Z</time></trkpt><trkpt lat="45.774693016014915" lon="8.959637716810166"><ele>392.0</ele><time>2026-04-11T05:01:18Z</time></trkpt><trkpt lat="45.774623522509586" lon="8.959590505714234"><ele>391.99999999999994</ele><time>2026-04-11T05:01:20Z</time></trkpt><trkpt lat="45.77455436715957" lon="8.959546581663135"><ele>392.0</ele><time>2026-04-11T05:01:22Z</time></trkpt><trkpt lat="45.774484849132605" lon="8.95950618655593"><ele>391.99999999999994</ele><time>2026-04-11T05:01:24Z</time></trkpt><trkpt lat="45.77440939811618" lon="8.959477585217524"><ele>392.0</ele><time>2026-04-11T05:01:26Z</time></trkpt><trkpt lat="45.77433493027688" lon="8.95944212451279"><ele>392.0</ele><time>2026-04-11T05:01:28Z</time></trkpt><trkpt lat="45.77426167129386" lon="8.959419780987897"><ele>392.0</ele><time>2026-04-11T05:01:30Z</time></trkpt><trkpt lat="45.774185216769446" lon="8.9593967905796"><ele>391.99999999999994</ele><time>2026-04-11T05:01:32Z</time></trkpt><trkpt lat="45.77410997713259" lon="8.959384635805709"><ele>392.0</ele><time>2026-04-11T05:01:34Z</time></trkpt><trkpt lat="45.77403009585688" lon="8.959366504829172"><ele>392.3333333333333</ele><time>2026-04-11T05:01:36Z</time></trkpt><trkpt lat="45.77395133273633" lon="8.959353574176143"><ele>392.66666666666663</ele><time>2026-04-11T05:01:38Z</time></trkpt><trkpt lat="45.773870044266594" lon="8.959336785779529"><ele>393.0</ele><time>2026-04-11T05:01:40Z</time></trkpt><trkpt lat="45.77378761335242" lon="8.95932771250079"><ele>393.33333333333337</ele><time>2026-04-11T05:01:42Z</time></trkpt><trkpt lat="45.7737109267112" lon="8.959308771452969"><ele>393.6666666666667</ele><time>2026-04-11T05:01:44Z</time></trkpt><trkpt lat="45.773637023384616" lon="8.95929782549858"><ele>394.0</ele><time>2026-04-11T05:01:46Z</time></trkpt><trkpt lat="45.7735639988804" lon="8.959285506159413"><ele>394.0</ele><time>2026-04-11T05:01:48Z</time></trkpt><trkpt lat="45.77349660464496" lon="8.959267316822208"><ele>394.0</ele><time>2026-04-11T05:01:50Z</time></trkpt><trkpt lat="45.77342726283805" lon="8.959254828245914"><ele>394.0</ele><time>2026-04-11T05:01:52Z</time></trkpt><trkpt lat="45.77335757575787" lon="8.959237013080125"><ele>394.0</ele><time>2026-04-11T05:01:54Z</time></trkpt><trkpt lat="45.7732830911733" lon="8.959230557744753"><ele>394.0</ele><time>2026-04-11T05:01:56Z</time></trkpt><trkpt lat="45.77321658905444" lon="8.959211775319968"><ele>394.0</ele><time>2026-04-11T05:01:58Z</time></trkpt><trkpt lat="45.77315347928408" lon="8.959207272773408"><ele>394.0</ele><time>2026-04-11T05:02:01Z</time></trkpt><trkpt lat="45.77319178576792" lon="8.959108896940604"><ele>394.5</ele><time>2026-04-11T05:02:04Z</time></trkpt><trkpt lat="45.77328994423552" lon="8.959023048514187"><ele>395.0</ele><time>2026-04-11T05:02:06Z</time></trkpt><trkpt lat="45.773376547696415" lon="8.958922230505824"><ele>395.5</ele><time>2026-04-11T05:02:08Z</time></trkpt><trkpt lat="45.77345944204366" lon="8.958801060934634"><ele>396.0</ele><time>2026-04-11T05:02:10Z</time></trkpt><trkpt lat="45.77354118271752" lon="8.958681420681668"><ele>395.20000000000005</ele><time>2026-04-11T05:02:12Z</time></trkpt><trkpt lat="45.773600850362506" lon="8.958523622257452"><ele>394.40000000000003</ele><time>2026-04-11T05:02:14Z</time></trkpt><trkpt lat="45.77365655721664" lon="8.958404675769026"><ele>393.6</ele><time>2026-04-11T05:02:16Z</time></trkpt><trkpt lat="45.773721448870226" lon="8.958286684743472"><ele>392.8</ele><time>2026-04-11T05:02:18Z</time></trkpt><trkpt lat="45.77375834308484" lon="8.958156069081847"><ele>392.0</ele><time>2026-04-11T05:02:20Z</time></trkpt><trkpt lat="45.77382460700674" lon="8.958041580847299"><ele>391.8333333333333</ele><time>2026-04-11T05:02:22Z</time></trkpt><trkpt lat="45.7738696314799" lon="8.957939201177101"><ele>391.66666666666663</ele><time>2026-04-11T05:02:25Z</time></trkpt><trkpt lat="45.773927279949376" lon="8.957859849262002"><ele>391.5</ele><time>2026-04-11T05:02:28Z</time></trkpt><trkpt lat="45.77397673457985" lon="8.957790878467936"><ele>391.33333333333337</ele><time>2026-04-11T05:02:30Z</time></trkpt><trkpt lat="45.77404005738066" lon="8.957739574414624"><ele>391.1666666666667</ele><time>2026-04-11T05:02:33Z</time></trkpt><trkpt lat="45.77409074328676" lon="8.9576594149531"><ele>391.0</ele><time>2026-04-11T05:02:36Z</time></trkpt><trkpt lat="45.77414836563026" lon="8.957600807118588"><ele>390.99999999999994</ele><time>2026-04-11T05:02:38Z</time></trkpt><trkpt lat="45.774206697467356" lon="8.957549058788919"><ele>391.0</ele><time>2026-04-11T05:02:40Z</time></trkpt><trkpt lat="45.77427242933091" lon="8.957489803077921"><ele>391.0</ele><time>2026-04-11T05:02:42Z</time></trkpt><trkpt lat="45.77432930005042" lon="8.957445680470013"><ele>391.0</ele><time>2026-04-11T05:02:44Z</time></trkpt><trkpt lat="45.77438555413702" lon="8.95739213838019"><ele>391.0</ele><time>2026-04-11T05:02:46Z</time></trkpt><trkpt lat="45.7744482304912" lon="8.957364934490913"><ele>390.99999999999994</ele><time>2026-04-11T05:02:48Z</time></trkpt><trkpt lat="45.77449911116852" lon="8.957303046545114"><ele>391.0</ele><time>2026-04-11T05:02:50Z</time></trkpt><trkpt lat="45.7745685523248" lon="8.957241420193832"><ele>392.33333333333337</ele><time>2026-04-11T05:02:52Z</time></trkpt><trkpt lat="45.774622530129065" lon="8.957190717183769"><ele>393.6666666666667</ele><time>2026-04-11T05:02:54Z</time></trkpt><trkpt lat="45.77470507826251" lon="8.957129275211459"><ele>395.0</ele><time>2026-04-11T05:02:57Z</time></trkpt><trkpt lat="45.774782742686064" lon="8.957069800960411"><ele>396.33333333333337</ele><time>2026-04-11T05:03:00Z</time></trkpt><trkpt lat="45.77483521521626" lon="8.957013675397508"><ele>397.6666666666667</ele><time>2026-04-11T05:03:03Z</time></trkpt><trkpt lat="45.77490253213402" lon="8.956959172784881"><ele>399.0</ele><time>2026-04-11T05:03:05Z</time></trkpt><trkpt lat="45.77497771050882" lon="8.95689420867489"><ele>399.0</ele><time>2026-04-11T05:03:10Z</time></trkpt><trkpt lat="45.77504308108724" lon="8.956862613142315"><ele>399.0</ele><time>2026-04-11T05:03:13Z</time></trkpt><trkpt lat="45.77511825000148" lon="8.95681937979978"><ele>399.0</ele><time>2026-04-11T05:03:16Z</time></trkpt><trkpt lat="45.7751725983879" lon="8.956742813136431"><ele>399.0</ele><time>2026-04-11T05:03:20Z</time></trkpt><trkpt lat="45.775230218636125" lon="8.956682473161498"><ele>399.0</ele><time>2026-04-11T05:03:23Z</time></trkpt><trkpt lat="45.775285300130555" lon="8.956616472791863"><ele>399.0</ele><time>2026-04-11T05:03:26Z</time></trkpt><trkpt lat="45.77534232131878" lon="8.956552788927938"><ele>399.0</ele><time>2026-04-11T05:03:29Z</time></trkpt><trkpt lat="45.77541713705025" lon="8.956509902507815"><ele>400.8333333333333</ele><time>2026-04-11T05:03:33Z</time></trkpt><trkpt lat="45.77548044832392" lon="8.95642384689446"><ele>402.66666666666663</ele><time>2026-04-11T05:03:38Z</time></trkpt><trkpt lat="45.77554854992964" lon="8.95637198959666"><ele>404.5</ele><time>2026-04-11T05:03:43Z</time></trkpt><trkpt lat="45.77560636464103" lon="8.956291017325483"><ele>406.3333333333333</ele><time>2026-04-11T05:03:48Z</time></trkpt><trkpt lat="45.77565559740864" lon="8.956189925625244"><ele>408.16666666666663</ele><time>2026-04-11T05:03:53Z</time></trkpt><trkpt lat="45.77571189915515" lon="8.956144696599758"><ele>410.0</ele><time>2026-04-11T05:03:57Z</time></trkpt><trkpt lat="45.77575812879159" lon="8.956065674721058"><ele>410.0</ele><time>2026-04-11T05:04:02Z</time></trkpt><trkpt lat="45.77581817310081" lon="8.956012435000316"><ele>410.0</ele><time>2026-04-11T05:04:07Z</time></trkpt><trkpt lat="45.77584889205135" lon="8.955917326111638"><ele>410.0</ele><time>2026-04-11T05:04:11Z</time></trkpt><trkpt lat="45.775847210475796" lon="8.955809820810186"><ele>410.0</ele><time>2026-04-11T05:04:15Z</time></trkpt><trkpt lat="45.775877529137155" lon="8.955914477573591"><ele>410.0</ele><time>2026-04-11T05:04:26Z</time></trkpt><trkpt lat="45.775832783587916" lon="8.956018258189065"><ele>410.0</ele><time>2026-04-11T05:04:29Z</time></trkpt><trkpt lat="45.77577923428194" lon="8.956067660676817"><ele>410.0</ele><time>2026-04-11T05:04:31Z</time></trkpt><trkpt lat="45.775730380262594" lon="8.956144695350414"><ele>410.0</ele><time>2026-04-11T05:04:33Z</time></trkpt><trkpt lat="45.7756693903142" lon="8.956208292513038"><ele>410.0</ele><time>2026-04-11T05:04:35Z</time></trkpt><trkpt lat="45.775677794756454" lon="8.956308653577246"><ele>410.0</ele><time>2026-04-11T05:04:40Z</time></trkpt><trkpt lat="45.7757410200751" lon="8.956262146301292"><ele>410.0</ele><time>2026-04-11T05:04:46Z</time></trkpt><trkpt lat="45.77581626437321" lon="8.956235589949891"><ele>410.0</ele><time>2026-04-11T05:04:50Z</time></trkpt><trkpt lat="45.775878523365705" lon="8.956207715899392"><ele>410.0</ele><time>2026-04-11T05:04:57Z</time></trkpt><trkpt lat="45.77595906806977" lon="8.956162642930853"><ele>410.0</ele><time>2026-04-11T05:05:03Z</time></trkpt><trkpt lat="45.77603835282249" lon="8.956100260499063"><ele>410.14285714285717</ele><time>2026-04-11T05:05:07Z</time></trkpt><trkpt lat="45.77610428446184" lon="8.956053020785797"><ele>410.2857142857143</ele><time>2026-04-11T05:05:10Z</time></trkpt><trkpt lat="45.77615776809315" lon="8.956003020078244"><ele>410.42857142857144</ele><time>2026-04-11T05:05:13Z</time></trkpt><trkpt lat="45.776224921538606" lon="8.955930749359828"><ele>410.57142857142856</ele><time>2026-04-11T05:05:16Z</time></trkpt><trkpt lat="45.77629229519543" lon="8.955881946645617"><ele>410.71428571428567</ele><time>2026-04-11T05:05:19Z</time></trkpt><trkpt lat="45.776359022089984" lon="8.955825101940238"><ele>410.85714285714283</ele><time>2026-04-11T05:05:22Z</time></trkpt><trkpt lat="45.77641549031046" lon="8.955780984456455"><ele>411.0</ele><time>2026-04-11T05:05:25Z</time></trkpt><trkpt lat="45.77648143697456" lon="8.95571722796803"><ele>411.57142857142856</ele><time>2026-04-11T05:05:28Z</time></trkpt><trkpt lat="45.77653273395287" lon="8.9556637306422"><ele>412.1428571428571</ele><time>2026-04-11T05:05:31Z</time></trkpt><trkpt lat="45.776594249953654" lon="8.95561447333017"><ele>412.7142857142857</ele><time>2026-04-11T05:05:34Z</time></trkpt><trkpt lat="45.77664945881109" lon="8.955567918249239"><ele>413.2857142857143</ele><time>2026-04-11T05:05:36Z</time></trkpt><trkpt lat="45.77670926060783" lon="8.955504547203269"><ele>413.8571428571429</ele><time>2026-04-11T05:05:39Z</time></trkpt><trkpt lat="45.7767772260208" lon="8.955438931364359"><ele>414.42857142857144</ele><time>2026-04-11T05:05:43Z</time></trkpt><trkpt lat="45.77683217797274" lon="8.95536524575639"><ele>415.0</ele><time>2026-04-11T05:05:46Z</time></trkpt><trkpt lat="45.77687860355746" lon="8.9552771392045"><ele>415.00000000000006</ele><time>2026-04-11T05:05:49Z</time></trkpt><trkpt lat="45.77692027557663" lon="8.955206702132525"><ele>415.0</ele><time>2026-04-11T05:05:52Z</time></trkpt><trkpt lat="45.77697746892583" lon="8.955104512168377"><ele>415.0</ele><time>2026-04-11T05:05:56Z</time></trkpt><trkpt lat="45.77702258076395" lon="8.955019750736886"><ele>415.0</ele><time>2026-04-11T05:05:59Z</time></trkpt><trkpt lat="45.777047413038844" lon="8.954907533621446"><ele>415.00000000000006</ele><time>2026-04-11T05:06:03Z</time></trkpt><trkpt lat="45.77711502500138" lon="8.95482102377508"><ele>415.0</ele><time>2026-04-11T05:06:06Z</time></trkpt><trkpt lat="45.77718018668116" lon="8.95473927793169"><ele>415.33333333333337</ele><time>2026-04-11T05:06:09Z</time></trkpt><trkpt lat="45.7772511846988" lon="8.954678899176033"><ele>415.6666666666667</ele><time>2026-04-11T05:06:13Z</time></trkpt><trkpt lat="45.77732030161916" lon="8.954674182832619"><ele>416.0</ele><time>2026-04-11T05:06:17Z</time></trkpt><trkpt lat="45.77739479801607" lon="8.95474662825137"><ele>416.33333333333337</ele><time>2026-04-11T05:06:21Z</time></trkpt><trkpt lat="45.77745121406279" lon="8.954820526062877"><ele>416.6666666666667</ele><time>2026-04-11T05:06:24Z</time></trkpt><trkpt lat="45.77749197156837" lon="8.954914075986354"><ele>417.0</ele><time>2026-04-11T05:06:27Z</time></trkpt><trkpt lat="45.777548211256516" lon="8.954975345880666"><ele>417.0</ele><time>2026-04-11T05:06:31Z</time></trkpt><trkpt lat="45.77760558971955" lon="8.954895946840614"><ele>417.0</ele><time>2026-04-11T05:06:35Z</time></trkpt><trkpt lat="45.77763748534538" lon="8.954766804237279"><ele>417.0</ele><time>2026-04-11T05:06:38Z</time></trkpt><trkpt lat="45.777694473789204" lon="8.954678214265297"><ele>417.0</ele><time>2026-04-11T05:06:41Z</time></trkpt><trkpt lat="45.777696997993175" lon="8.954568380902346"><ele>417.0</ele><time>2026-04-11T05:06:45Z</time></trkpt><trkpt lat="45.77773622199169" lon="8.9544804250534"><ele>417.0</ele><time>2026-04-11T05:06:47Z</time></trkpt><trkpt lat="45.77777237150367" lon="8.954376261553321"><ele>416.6666666666667</ele><time>2026-04-11T05:06:50Z</time></trkpt><trkpt lat="45.777807736016776" lon="8.954264492153474"><ele>416.33333333333337</ele><time>2026-04-11T05:06:53Z</time></trkpt><trkpt lat="45.77784966579369" lon="8.954153442346609"><ele>416.0</ele><time>2026-04-11T05:06:56Z</time></trkpt><trkpt lat="45.7778871034881" lon="8.95404985046489"><ele>415.6666666666667</ele><time>2026-04-11T05:06:59Z</time></trkpt><trkpt lat="45.777934051476166" lon="8.953954205649932"><ele>415.33333333333337</ele><time>2026-04-11T05:07:02Z</time></trkpt><trkpt lat="45.77797170354421" lon="8.953871004909697"><ele>415.0</ele><time>2026-04-11T05:07:05Z</time></trkpt><trkpt lat="45.77801196630299" lon="8.953770669845161"><ele>415.6666666666667</ele><time>2026-04-11T05:07:08Z</time></trkpt><trkpt lat="45.778056709420724" lon="8.9536843484658"><ele>416.33333333333337</ele><time>2026-04-11T05:07:11Z</time></trkpt><trkpt lat="45.77811625321756" lon="8.953610716471319"><ele>417.0</ele><time>2026-04-11T05:07:14Z</time></trkpt><trkpt lat="45.77816507758664" lon="8.95350912460695"><ele>417.66666666666663</ele><time>2026-04-11T05:07:18Z</time></trkpt><trkpt lat="45.77820928770868" lon="8.953413581697799"><ele>418.3333333333333</ele><time>2026-04-11T05:07:22Z</time></trkpt><trkpt lat="45.77822373196286" lon="8.953321543822279"><ele>419.0</ele><time>2026-04-11T05:07:26Z</time></trkpt><trkpt lat="45.778244548757435" lon="8.95322753000089"><ele>418.99999999999994</ele><time>2026-04-11T05:07:30Z</time></trkpt><trkpt lat="45.7782964325968" lon="8.953117843049418"><ele>419.0</ele><time>2026-04-11T05:07:34Z</time></trkpt><trkpt lat="45.778346212229174" lon="8.953031775019879"><ele>419.0</ele><time>2026-04-11T05:07:38Z</time></trkpt><trkpt lat="45.778371269189435" lon="8.952948400668792"><ele>419.0</ele><time>2026-04-11T05:07:42Z</time></trkpt><trkpt lat="45.77844197913072" lon="8.95286345469363"><ele>418.99999999999994</ele><time>2026-04-11T05:07:47Z</time></trkpt><trkpt lat="45.77849452314424" lon="8.952806604367908"><ele>419.0</ele><time>2026-04-11T05:08:25Z</time></trkpt><trkpt lat="45.77854320926914" lon="8.952737377915136"><ele>418.99999999999994</ele><time>2026-04-11T05:08:29Z</time></trkpt><trkpt lat="45.77858725891981" lon="8.952671814688125"><ele>419.0</ele><time>2026-04-11T05:08:32Z</time></trkpt><trkpt lat="45.77863960219234" lon="8.952603667638938"><ele>419.0</ele><time>2026-04-11T05:08:35Z</time></trkpt><trkpt lat="45.77868402689956" lon="8.952532191489718"><ele>419.0</ele><time>2026-04-11T05:08:39Z</time></trkpt><trkpt lat="45.778721054704974" lon="8.952451952847408"><ele>419.0</ele><time>2026-04-11T05:08:43Z</time></trkpt><trkpt lat="45.77876063222247" lon="8.95236128795218"><ele>418.99999999999994</ele><time>2026-04-11T05:08:47Z</time></trkpt><trkpt lat="45.77879940501858" lon="8.95228500474524"><ele>419.0</ele><time>2026-04-11T05:08:51Z</time></trkpt><trkpt lat="45.77884076921814" lon="8.952202890629398"><ele>419.85714285714283</ele><time>2026-04-11T05:08:55Z</time></trkpt><trkpt lat="45.77887626023993" lon="8.952128112730984"><ele>420.7142857142857</ele><time>2026-04-11T05:08:59Z</time></trkpt><trkpt lat="45.77892894393959" lon="8.952057500311529"><ele>421.57142857142856</ele><time>2026-04-11T05:09:02Z</time></trkpt><trkpt lat="45.7789602276759" lon="8.951978136410986"><ele>422.42857142857144</ele><time>2026-04-11T05:09:06Z</time></trkpt><trkpt lat="45.77901328097839" lon="8.951884358545241"><ele>423.2857142857143</ele><time>2026-04-11T05:09:11Z</time></trkpt><trkpt lat="45.779059042289745" lon="8.95179955472824"><ele>424.1428571428571</ele><time>2026-04-11T05:09:15Z</time></trkpt><trkpt lat="45.779116255101826" lon="8.951717700727272"><ele>425.0</ele><time>2026-04-11T05:09:19Z</time></trkpt><trkpt lat="45.77916171719183" lon="8.95165487375839"><ele>425.3333333333333</ele><time>2026-04-11T05:09:22Z</time></trkpt><trkpt lat="45.77922342675404" lon="8.951607940369648"><ele>425.66666666666663</ele><time>2026-04-11T05:09:26Z</time></trkpt><trkpt lat="45.77929669660075" lon="8.95154698248447"><ele>426.0</ele><time>2026-04-11T05:09:30Z</time></trkpt><trkpt lat="45.77936965546482" lon="8.951512793315903"><ele>426.33333333333337</ele><time>2026-04-11T05:09:34Z</time></trkpt><trkpt lat="45.779443567453065" lon="8.951458377216452"><ele>426.6666666666667</ele><time>2026-04-11T05:09:39Z</time></trkpt><trkpt lat="45.779499814143335" lon="8.95137741864286"><ele>427.0</ele><time>2026-04-11T05:09:42Z</time></trkpt><trkpt lat="45.779566812714634" lon="8.951304819795348"><ele>427.2857142857143</ele><time>2026-04-11T05:09:46Z</time></trkpt><trkpt lat="45.77962081492052" lon="8.951244275807118"><ele>427.57142857142856</ele><time>2026-04-11T05:09:50Z</time></trkpt><trkpt lat="45.779674581449186" lon="8.95119586385813"><ele>427.8571428571429</ele><time>2026-04-11T05:09:53Z</time></trkpt><trkpt lat="45.779731509667634" lon="8.951130997031353"><ele>428.1428571428571</ele><time>2026-04-11T05:09:56Z</time></trkpt><trkpt lat="45.77979783562396" lon="8.95107285531944"><ele>428.42857142857144</ele><time>2026-04-11T05:10:00Z</time></trkpt><trkpt lat="45.77986443826087" lon="8.951002906123913"><ele>428.7142857142857</ele><time>2026-04-11T05:10:04Z</time></trkpt><trkpt lat="45.77989941881439" lon="8.950915104464471"><ele>429.0</ele><time>2026-04-11T05:10:07Z</time></trkpt><trkpt lat="45.77994056613724" lon="8.95082047530441"><ele>429.57142857142856</ele><time>2026-04-11T05:10:10Z</time></trkpt><trkpt lat="45.779999293900595" lon="8.95075406954246"><ele>430.14285714285717</ele><time>2026-04-11T05:10:13Z</time></trkpt><trkpt lat="45.78005808764873" lon="8.950663195944713"><ele>430.71428571428567</ele><time>2026-04-11T05:10:17Z</time></trkpt><trkpt lat="45.78010714655014" lon="8.950605612245628"><ele>431.2857142857143</ele><time>2026-04-11T05:10:20Z</time></trkpt><trkpt lat="45.78017198689283" lon="8.950530841325106"><ele>431.85714285714283</ele><time>2026-04-11T05:10:24Z</time></trkpt><trkpt lat="45.78022756687564" lon="8.950474418454384"><ele>432.4285714285714</ele><time>2026-04-11T05:10:27Z</time></trkpt><trkpt lat="45.78028905649709" lon="8.950417728431905"><ele>433.0</ele><time>2026-04-11T05:10:30Z</time></trkpt><trkpt lat="45.780349761134744" lon="8.950350599541302"><ele>432.99999999999994</ele><time>2026-04-11T05:10:34Z</time></trkpt><trkpt lat="45.78040973973778" lon="8.950314516425406"><ele>433.0</ele><time>2026-04-11T05:10:38Z</time></trkpt><trkpt lat="45.780481926929696" lon="8.950268183562622"><ele>433.0</ele><time>2026-04-11T05:10:41Z</time></trkpt><trkpt lat="45.7805397306513" lon="8.950229536869804"><ele>433.0</ele><time>2026-04-11T05:10:44Z</time></trkpt><trkpt lat="45.78059578512463" lon="8.950186978535228"><ele>433.0</ele><time>2026-04-11T05:10:47Z</time></trkpt><trkpt lat="45.78067413693072" lon="8.950129946854355"><ele>432.99999999999994</ele><time>2026-04-11T05:10:51Z</time></trkpt><trkpt lat="45.780741791060386" lon="8.95009198153312"><ele>433.0</ele><time>2026-04-11T05:10:54Z</time></trkpt><trkpt lat="45.78080517312957" lon="8.950059611271078"><ele>433.1428571428571</ele><time>2026-04-11T05:10:57Z</time></trkpt><trkpt lat="45.78086673835886" lon="8.950026899903754"><ele>433.2857142857143</ele><time>2026-04-11T05:11:00Z</time></trkpt><trkpt lat="45.78093956314654" lon="8.949992340232727"><ele>433.42857142857144</ele><time>2026-04-11T05:11:03Z</time></trkpt><trkpt lat="45.780995966537404" lon="8.94994327283932"><ele>433.57142857142856</ele><time>2026-04-11T05:11:06Z</time></trkpt><trkpt lat="45.78107289496433" lon="8.949905113824158"><ele>433.7142857142857</ele><time>2026-04-11T05:11:09Z</time></trkpt><trkpt lat="45.781133056755344" lon="8.949870751010268"><ele>433.85714285714283</ele><time>2026-04-11T05:11:12Z</time></trkpt><trkpt lat="45.781197154895004" lon="8.949837803293926"><ele>434.0</ele><time>2026-04-11T05:11:15Z</time></trkpt><trkpt lat="45.78125789756559" lon="8.949796336111623"><ele>434.0</ele><time>2026-04-11T05:11:18Z</time></trkpt><trkpt lat="45.781323116784996" lon="8.949756519490274"><ele>434.0</ele><time>2026-04-11T05:11:21Z</time></trkpt><trkpt lat="45.78139111127169" lon="8.949730749693156"><ele>434.0</ele><time>2026-04-11T05:11:24Z</time></trkpt><trkpt lat="45.78144515812605" lon="8.949683357429306"><ele>434.0</ele><time>2026-04-11T05:11:27Z</time></trkpt><trkpt lat="45.781516754858174" lon="8.949617268895414"><ele>434.0</ele><time>2026-04-11T05:11:30Z</time></trkpt><trkpt lat="45.78157925625308" lon="8.94957163545914"><ele>434.0</ele><time>2026-04-11T05:11:33Z</time></trkpt><trkpt lat="45.78164603929396" lon="8.949513543436716"><ele>434.0</ele><time>2026-04-11T05:11:36Z</time></trkpt><trkpt lat="45.781711878253276" lon="8.949442227903802"><ele>434.0</ele><time>2026-04-11T05:11:39Z</time></trkpt><trkpt lat="45.781771031911205" lon="8.949378106317445"><ele>434.0</ele><time>2026-04-11T05:11:42Z</time></trkpt><trkpt lat="45.781825422777246" lon="8.94930687097495"><ele>434.0</ele><time>2026-04-11T05:11:45Z</time></trkpt><trkpt lat="45.781869523055015" lon="8.949240609632923"><ele>434.0</ele><time>2026-04-11T05:11:48Z</time></trkpt><trkpt lat="45.78192865733506" lon="8.949178597954344"><ele>434.0</ele><time>2026-04-11T05:11:51Z</time></trkpt><trkpt lat="45.78198479169818" lon="8.949107782725362"><ele>434.0</ele><time>2026-04-11T05:11:54Z</time></trkpt><trkpt lat="45.782057196055874" lon="8.949057941923312"><ele>434.0</ele><time>2026-04-11T05:11:57Z</time></trkpt><trkpt lat="45.78212865879998" lon="8.948992810227166"><ele>433.66666666666663</ele><time>2026-04-11T05:12:00Z</time></trkpt><trkpt lat="45.782202800170495" lon="8.948933737560518"><ele>433.3333333333333</ele><time>2026-04-11T05:12:03Z</time></trkpt><trkpt lat="45.78227857732113" lon="8.948873219602797"><ele>433.0</ele><time>2026-04-11T05:12:06Z</time></trkpt><trkpt lat="45.782348305890274" lon="8.948819116172173"><ele>432.66666666666663</ele><time>2026-04-11T05:12:09Z</time></trkpt><trkpt lat="45.78240530788537" lon="8.948761392288294"><ele>432.3333333333333</ele><time>2026-04-11T05:12:12Z</time></trkpt><trkpt lat="45.782448032701886" lon="8.948693519142727"><ele>432.0</ele><time>2026-04-11T05:12:14Z</time></trkpt><trkpt lat="45.782497187543335" lon="8.948614784086285"><ele>432.0</ele><time>2026-04-11T05:12:16Z</time></trkpt><trkpt lat="45.78254783938482" lon="8.948545254840177"><ele>432.0</ele><time>2026-04-11T05:12:18Z</time></trkpt><trkpt lat="45.78259778372331" lon="8.948431940010314"><ele>432.0</ele><time>2026-04-11T05:12:21Z</time></trkpt><trkpt lat="45.782641781712066" lon="8.948340576893498"><ele>432.0</ele><time>2026-04-11T05:12:24Z</time></trkpt><trkpt lat="45.782671550552415" lon="8.948253857416884"><ele>432.0</ele><time>2026-04-11T05:12:26Z</time></trkpt><trkpt lat="45.78271060152545" lon="8.94814846480878"><ele>432.0</ele><time>2026-04-11T05:12:29Z</time></trkpt><trkpt lat="45.782751273202074" lon="8.94807024467043"><ele>432.0</ele><time>2026-04-11T05:12:31Z</time></trkpt><trkpt lat="45.78279095250186" lon="8.947970229657045"><ele>432.0</ele><time>2026-04-11T05:12:34Z</time></trkpt><trkpt lat="45.78285369573984" lon="8.947896650991487"><ele>432.0</ele><time>2026-04-11T05:12:37Z</time></trkpt><trkpt lat="45.78285345890251" lon="8.947790662308257"><ele>432.0</ele><time>2026-04-11T05:12:39Z</time></trkpt><trkpt lat="45.7828480527735" lon="8.947697137027212"><ele>432.0</ele><time>2026-04-11T05:12:42Z</time></trkpt><trkpt lat="45.78289659514257" lon="8.947614826938311"><ele>432.0</ele><time>2026-04-11T05:12:44Z</time></trkpt><trkpt lat="45.782919625448926" lon="8.947524101618482"><ele>432.0</ele><time>2026-04-11T05:12:46Z</time></trkpt><trkpt lat="45.782940176557034" lon="8.947414559986107"><ele>431.8333333333333</ele><time>2026-04-11T05:12:49Z</time></trkpt><trkpt lat="45.78294822629547" lon="8.947301330394485"><ele>431.66666666666663</ele><time>2026-04-11T05:12:52Z</time></trkpt><trkpt lat="45.7829673670583" lon="8.947181233060688"><ele>431.5</ele><time>2026-04-11T05:12:55Z</time></trkpt><trkpt lat="45.782998082590154" lon="8.947074114689293"><ele>431.3333333333333</ele><time>2026-04-11T05:12:58Z</time></trkpt><trkpt lat="45.78305679175051" lon="8.946974481823654"><ele>431.16666666666663</ele><time>2026-04-11T05:13:01Z</time></trkpt><trkpt lat="45.783093827969495" lon="8.946895340884588"><ele>431.0</ele><time>2026-04-11T05:13:03Z</time></trkpt><trkpt lat="45.783123473275744" lon="8.946785242891844"><ele>431.16666666666663</ele><time>2026-04-11T05:13:06Z</time></trkpt><trkpt lat="45.7831512398598" lon="8.946695179786907"><ele>431.3333333333333</ele><time>2026-04-11T05:13:08Z</time></trkpt><trkpt lat="45.78319564133982" lon="8.946580777196225"><ele>431.5</ele><time>2026-04-11T05:13:11Z</time></trkpt><trkpt lat="45.783219155298" lon="8.946487410633926"><ele>431.66666666666663</ele><time>2026-04-11T05:13:14Z</time></trkpt><trkpt lat="45.78327238250244" lon="8.946375159657546"><ele>431.8333333333333</ele><time>2026-04-11T05:13:17Z</time></trkpt><trkpt lat="45.78332523086692" lon="8.946269869569882"><ele>432.0</ele><time>2026-04-11T05:13:20Z</time></trkpt><trkpt lat="45.78336474140903" lon="8.946198482735609"><ele>432.0</ele><time>2026-04-11T05:13:22Z</time></trkpt><trkpt lat="45.783427053876025" lon="8.946162676490545"><ele>432.0</ele><time>2026-04-11T05:13:24Z</time></trkpt><trkpt lat="45.78347421750452" lon="8.946056164959279"><ele>432.0</ele><time>2026-04-11T05:13:27Z</time></trkpt><trkpt lat="45.783523822007126" lon="8.945960842692202"><ele>432.0</ele><time>2026-04-11T05:13:30Z</time></trkpt><trkpt lat="45.783659135940304" lon="8.945988192659215"><ele>432.0</ele><time>2026-04-11T05:13:33Z</time></trkpt><trkpt lat="45.783713645370696" lon="8.945918410399884"><ele>432.0</ele><time>2026-04-11T05:13:35Z</time></trkpt><trkpt lat="45.78376671589364" lon="8.94583832581466"><ele>431.5</ele><time>2026-04-11T05:13:38Z</time></trkpt><trkpt lat="45.78381876856546" lon="8.945768090910493"><ele>431.0</ele><time>2026-04-11T05:13:41Z</time></trkpt><trkpt lat="45.78386976958769" lon="8.945704229621576"><ele>430.5</ele><time>2026-04-11T05:13:44Z</time></trkpt><trkpt lat="45.7839377799701" lon="8.945712469928164"><ele>430.0</ele><time>2026-04-11T05:13:49Z</time></trkpt><trkpt lat="45.78398912592853" lon="8.945789319783215"><ele>429.5</ele><time>2026-04-11T05:13:51Z</time></trkpt><trkpt lat="45.78404529933017" lon="8.945875019975377"><ele>429.0</ele><time>2026-04-11T05:13:53Z</time></trkpt><trkpt lat="45.784109805794394" lon="8.945971042340474"><ele>428.79999999999995</ele><time>2026-04-11T05:13:55Z</time></trkpt><trkpt lat="45.7841692567951" lon="8.946074864840444"><ele>428.59999999999997</ele><time>2026-04-11T05:13:57Z</time></trkpt><trkpt lat="45.78423832468519" lon="8.946174010227923"><ele>428.4</ele><time>2026-04-11T05:13:59Z</time></trkpt><trkpt lat="45.78430513937381" lon="8.946270164942668"><ele>428.2</ele><time>2026-04-11T05:14:01Z</time></trkpt><trkpt lat="45.784366067519045" lon="8.946364901326271"><ele>428.0</ele><time>2026-04-11T05:14:03Z</time></trkpt><trkpt lat="45.78442530623605" lon="8.946452816735265"><ele>427.99999999999994</ele><time>2026-04-11T05:14:05Z</time></trkpt><trkpt lat="45.784473534917545" lon="8.946529279758378"><ele>428.0</ele><time>2026-04-11T05:14:07Z</time></trkpt><trkpt lat="45.78451790866565" lon="8.946601944352164"><ele>428.0</ele><time>2026-04-11T05:14:09Z</time></trkpt><trkpt lat="45.784567264831715" lon="8.946683058974335"><ele>428.0</ele><time>2026-04-11T05:14:11Z</time></trkpt><trkpt lat="45.78462882690002" lon="8.946777059313685"><ele>427.99999999999994</ele><time>2026-04-11T05:14:13Z</time></trkpt><trkpt lat="45.78469964150896" lon="8.946868030154377"><ele>428.0</ele><time>2026-04-11T05:14:15Z</time></trkpt><trkpt lat="45.784778877343896" lon="8.94693226357371"><ele>427.2</ele><time>2026-04-11T05:14:17Z</time></trkpt><trkpt lat="45.78486738884504" lon="8.946984192929436"><ele>426.4</ele><time>2026-04-11T05:14:19Z</time></trkpt><trkpt lat="45.78496881891665" lon="8.947025411683041"><ele>425.59999999999997</ele><time>2026-04-11T05:14:21Z</time></trkpt><trkpt lat="45.78509174657193" lon="8.947069416407608"><ele>424.79999999999995</ele><time>2026-04-11T05:14:23Z</time></trkpt><trkpt lat="45.78516122862702" lon="8.947093588831779"><ele>424.0</ele><time>2026-04-11T05:14:24Z</time></trkpt><trkpt lat="45.78523357834776" lon="8.947130141237905"><ele>423.6666666666667</ele><time>2026-04-11T05:14:25Z</time></trkpt><trkpt lat="45.7853038679432" lon="8.947178540083659"><ele>423.33333333333337</ele><time>2026-04-11T05:14:26Z</time></trkpt><trkpt lat="45.7853687076582" lon="8.947239205911973"><ele>423.0</ele><time>2026-04-11T05:14:27Z</time></trkpt><trkpt lat="45.7854338038095" lon="8.947302179178388"><ele>422.66666666666663</ele><time>2026-04-11T05:14:28Z</time></trkpt><trkpt lat="45.78548691661958" lon="8.947379537755957"><ele>422.3333333333333</ele><time>2026-04-11T05:14:29Z</time></trkpt><trkpt lat="45.78553311448753" lon="8.94746132668378"><ele>422.0</ele><time>2026-04-11T05:14:30Z</time></trkpt><trkpt lat="45.785580211245055" lon="8.947542297712527"><ele>422.16666666666663</ele><time>2026-04-11T05:14:31Z</time></trkpt><trkpt lat="45.78561793173213" lon="8.947625450212726"><ele>422.3333333333333</ele><time>2026-04-11T05:14:32Z</time></trkpt><trkpt lat="45.78562196360429" lon="8.94772857774163"><ele>422.5</ele><time>2026-04-11T05:14:33Z</time></trkpt><trkpt lat="45.78566735455449" lon="8.94779907044374"><ele>422.66666666666663</ele><time>2026-04-11T05:14:34Z</time></trkpt><trkpt lat="45.78570493820862" lon="8.947875531018703"><ele>422.8333333333333</ele><time>2026-04-11T05:14:35Z</time></trkpt><trkpt lat="45.78576973699876" lon="8.94802735367463"><ele>423.0</ele><time>2026-04-11T05:14:37Z</time></trkpt><trkpt lat="45.785795221169344" lon="8.94811332248929"><ele>423.0</ele><time>2026-04-11T05:14:38Z</time></trkpt><trkpt lat="45.78581946695424" lon="8.948197257618242"><ele>423.0</ele><time>2026-04-11T05:14:39Z</time></trkpt><trkpt lat="45.78585250307025" lon="8.948282655682073"><ele>423.0</ele><time>2026-04-11T05:14:40Z</time></trkpt><trkpt lat="45.78588608566601" lon="8.948363805083881"><ele>423.0</ele><time>2026-04-11T05:14:41Z</time></trkpt><trkpt lat="45.785915134275484" lon="8.948448973611528"><ele>423.0</ele><time>2026-04-11T05:14:42Z</time></trkpt><trkpt lat="45.78596372318699" lon="8.948617451046816"><ele>423.0</ele><time>2026-04-11T05:14:44Z</time></trkpt><trkpt lat="45.78601493141807" lon="8.94878473498972"><ele>422.3333333333333</ele><time>2026-04-11T05:14:46Z</time></trkpt><trkpt lat="45.78604381997561" lon="8.948873753530354"><ele>421.66666666666663</ele><time>2026-04-11T05:14:47Z</time></trkpt><trkpt lat="45.78606992637142" lon="8.948962983404938"><ele>421.0</ele><time>2026-04-11T05:14:48Z</time></trkpt><trkpt lat="45.786123125478994" lon="8.94913715960876"><ele>420.3333333333333</ele><time>2026-04-11T05:14:50Z</time></trkpt><trkpt lat="45.786130780220894" lon="8.94922892381992"><ele>419.66666666666663</ele><time>2026-04-11T05:14:51Z</time></trkpt><trkpt lat="45.7861594179026" lon="8.949322783245208"><ele>419.0</ele><time>2026-04-11T05:14:52Z</time></trkpt><trkpt lat="45.7861867626865" lon="8.949406996522711"><ele>418.3333333333333</ele><time>2026-04-11T05:14:53Z</time></trkpt><trkpt lat="45.78622315972481" lon="8.949527343099403"><ele>417.66666666666663</ele><time>2026-04-11T05:14:55Z</time></trkpt><trkpt lat="45.78629955520136" lon="8.949596730375406"><ele>417.0</ele><time>2026-04-11T05:14:57Z</time></trkpt><trkpt lat="45.78637833781228" lon="8.949516896932783"><ele>416.33333333333337</ele><time>2026-04-11T05:14:58Z</time></trkpt><trkpt lat="45.78641922903851" lon="8.949424003446273"><ele>415.6666666666667</ele><time>2026-04-11T05:14:59Z</time></trkpt><trkpt lat="45.78645625536914" lon="8.9493445045591"><ele>415.0</ele><time>2026-04-11T05:15:00Z</time></trkpt><trkpt lat="45.78649717946219" lon="8.94927027606941"><ele>415.57142857142856</ele><time>2026-04-11T05:15:01Z</time></trkpt><trkpt lat="45.786539594761905" lon="8.949199804196157"><ele>416.14285714285717</ele><time>2026-04-11T05:15:02Z</time></trkpt><trkpt lat="45.78658630920714" lon="8.94912303602601"><ele>416.71428571428567</ele><time>2026-04-11T05:15:03Z</time></trkpt><trkpt lat="45.78663471126907" lon="8.949047707021297"><ele>417.2857142857143</ele><time>2026-04-11T05:15:04Z</time></trkpt><trkpt lat="45.78668369805411" lon="8.948967073869401"><ele>417.85714285714283</ele><time>2026-04-11T05:15:05Z</time></trkpt><trkpt lat="45.78673386637833" lon="8.948879470535434"><ele>418.4285714285714</ele><time>2026-04-11T05:15:06Z</time></trkpt><trkpt lat="45.78678683974948" lon="8.94879811691526"><ele>419.0</ele><time>2026-04-11T05:15:07Z</time></trkpt><trkpt lat="45.78683141897494" lon="8.948713102012313"><ele>418.99999999999994</ele><time>2026-04-11T05:15:08Z</time></trkpt><trkpt lat="45.78687657247108" lon="8.948625595653132"><ele>419.0</ele><time>2026-04-11T05:15:09Z</time></trkpt><trkpt lat="45.78692182830331" lon="8.948543221112397"><ele>419.0</ele><time>2026-04-11T05:15:10Z</time></trkpt><trkpt lat="45.78696901040598" lon="8.948466745553203"><ele>419.0</ele><time>2026-04-11T05:15:11Z</time></trkpt><trkpt lat="45.78701930637057" lon="8.948391088093024"><ele>419.0</ele><time>2026-04-11T05:15:12Z</time></trkpt><trkpt lat="45.78707360469296" lon="8.948323661634205"><ele>418.99999999999994</ele><time>2026-04-11T05:15:13Z</time></trkpt><trkpt lat="45.78712800086097" lon="8.948266776822019"><ele>419.0</ele><time>2026-04-11T05:15:14Z</time></trkpt><trkpt lat="45.787231321618876" lon="8.9481826527813"><ele>419.0</ele><time>2026-04-11T05:15:16Z</time></trkpt><trkpt lat="45.78732282639309" lon="8.948110510481483"><ele>419.0</ele><time>2026-04-11T05:15:18Z</time></trkpt><trkpt lat="45.78741942739377" lon="8.948044880191974"><ele>419.0</ele><time>2026-04-11T05:15:20Z</time></trkpt><trkpt lat="45.78751130462892" lon="8.947970338514057"><ele>419.0</ele><time>2026-04-11T05:15:22Z</time></trkpt><trkpt lat="45.787598602101795" lon="8.947904146621868"><ele>419.0</ele><time>2026-04-11T05:15:24Z</time></trkpt><trkpt lat="45.78769127615519" lon="8.947842816049084"><ele>418.99999999999994</ele><time>2026-04-11T05:15:26Z</time></trkpt><trkpt lat="45.787768449235955" lon="8.94778740103707"><ele>419.0</ele><time>2026-04-11T05:15:28Z</time></trkpt><trkpt lat="45.78782863387191" lon="8.947751573337227"><ele>419.0</ele><time>2026-04-11T05:15:30Z</time></trkpt><trkpt lat="45.787896771832415" lon="8.947702399714837"><ele>419.0</ele><time>2026-04-11T05:15:34Z</time></trkpt><trkpt lat="45.787979953893775" lon="8.947692450909182"><ele>418.99999999999994</ele><time>2026-04-11T05:15:48Z</time></trkpt><trkpt lat="45.788063372268084" lon="8.94770390618998"><ele>419.0</ele><time>2026-04-11T05:15:51Z</time></trkpt><trkpt lat="45.78811897482155" lon="8.947589221029832"><ele>419.8333333333333</ele><time>2026-04-11T05:15:54Z</time></trkpt><trkpt lat="45.788131308318754" lon="8.947495673253357"><ele>420.66666666666663</ele><time>2026-04-11T05:15:56Z</time></trkpt><trkpt lat="45.78823893681042" lon="8.947466578524622"><ele>421.5</ele><time>2026-04-11T05:15:59Z</time></trkpt><trkpt lat="45.78830376210659" lon="8.947429580186261"><ele>422.33333333333337</ele><time>2026-04-11T05:16:01Z</time></trkpt><trkpt lat="45.788403897310566" lon="8.947413901437924"><ele>423.1666666666667</ele><time>2026-04-11T05:16:04Z</time></trkpt><trkpt lat="45.78848794495615" lon="8.947363830853096"><ele>424.0</ele><time>2026-04-11T05:16:07Z</time></trkpt><trkpt lat="45.78856871945859" lon="8.947360541955975"><ele>424.2857142857143</ele><time>2026-04-11T05:16:10Z</time></trkpt><trkpt lat="45.78862526657657" lon="8.947319147498897"><ele>424.57142857142856</ele><time>2026-04-11T05:16:12Z</time></trkpt><trkpt lat="45.78869001669315" lon="8.947323959913435"><ele>424.85714285714283</ele><time>2026-04-11T05:16:14Z</time></trkpt><trkpt lat="45.788747236150485" lon="8.94728371804469"><ele>425.1428571428571</ele><time>2026-04-11T05:16:16Z</time></trkpt><trkpt lat="45.788836831611476" lon="8.947258394966063"><ele>425.42857142857144</ele><time>2026-04-11T05:16:19Z</time></trkpt><trkpt lat="45.788903856815026" lon="8.947248883441649"><ele>425.71428571428567</ele><time>2026-04-11T05:16:21Z</time></trkpt><trkpt lat="45.78898456201315" lon="8.947215008606076"><ele>426.0</ele><time>2026-04-11T05:16:24Z</time></trkpt><trkpt lat="45.78906185600301" lon="8.947238931142607"><ele>425.99999999999994</ele><time>2026-04-11T05:16:27Z</time></trkpt><trkpt lat="45.78907416381369" lon="8.947371645617112"><ele>426.0</ele><time>2026-04-11T05:16:29Z</time></trkpt><trkpt lat="45.78908171650067" lon="8.947465829853455"><ele>426.0</ele><time>2026-04-11T05:16:31Z</time></trkpt><trkpt lat="45.78909914644484" lon="8.947560409408037"><ele>426.0</ele><time>2026-04-11T05:16:33Z</time></trkpt><trkpt lat="45.78911768036739" lon="8.94764989845606"><ele>426.0</ele><time>2026-04-11T05:16:35Z</time></trkpt><trkpt lat="45.789138653155355" lon="8.947754001754262"><ele>425.99999999999994</ele><time>2026-04-11T05:16:37Z</time></trkpt><trkpt lat="45.78914010845632" lon="8.947865485496099"><ele>426.0</ele><time>2026-04-11T05:16:39Z</time></trkpt><trkpt lat="45.789171985307505" lon="8.947978579002623"><ele>425.8333333333333</ele><time>2026-04-11T05:16:41Z</time></trkpt><trkpt lat="45.78918402945166" lon="8.948096336204102"><ele>425.66666666666663</ele><time>2026-04-11T05:16:43Z</time></trkpt><trkpt lat="45.78920714509153" lon="8.948218143298673"><ele>425.5</ele><time>2026-04-11T05:16:45Z</time></trkpt><trkpt lat="45.78922534441731" lon="8.948339204318842"><ele>425.3333333333333</ele><time>2026-04-11T05:16:47Z</time></trkpt><trkpt lat="45.78924258510036" lon="8.948460198242229"><ele>425.16666666666663</ele><time>2026-04-11T05:16:49Z</time></trkpt><trkpt lat="45.78926082955956" lon="8.948579982778732"><ele>425.0</ele><time>2026-04-11T05:16:51Z</time></trkpt><trkpt lat="45.789279149461116" lon="8.948701499416837"><ele>424.3333333333333</ele><time>2026-04-11T05:16:53Z</time></trkpt><trkpt lat="45.7893007629339" lon="8.948821656422574"><ele>423.66666666666663</ele><time>2026-04-11T05:16:55Z</time></trkpt><trkpt lat="45.78932801861989" lon="8.948939214023"><ele>423.0</ele><time>2026-04-11T05:16:57Z</time></trkpt><trkpt lat="45.789336898436986" lon="8.949057055014602"><ele>422.33333333333337</ele><time>2026-04-11T05:16:59Z</time></trkpt><trkpt lat="45.78938670923657" lon="8.949159935967378"><ele>421.6666666666667</ele><time>2026-04-11T05:17:01Z</time></trkpt><trkpt lat="45.78942947751023" lon="8.949257160348893"><ele>421.0</ele><time>2026-04-11T05:17:03Z</time></trkpt><trkpt lat="45.78947566443542" lon="8.949352446401397"><ele>422.50000000000006</ele><time>2026-04-11T05:17:05Z</time></trkpt><trkpt lat="45.789519511560066" lon="8.94943976672557"><ele>424.0</ele><time>2026-04-11T05:17:07Z</time></trkpt><trkpt lat="45.78956985677171" lon="8.949524949180498"><ele>425.5</ele><time>2026-04-11T05:17:09Z</time></trkpt><trkpt lat="45.78957782214473" lon="8.949646612664871"><ele>427.0</ele><time>2026-04-11T05:17:11Z</time></trkpt><trkpt lat="45.78959439147207" lon="8.94976563990427"><ele>428.50000000000006</ele><time>2026-04-11T05:17:13Z</time></trkpt><trkpt lat="45.789642174817" lon="8.949880477071797"><ele>430.0</ele><time>2026-04-11T05:17:15Z</time></trkpt><trkpt lat="45.78966678205034" lon="8.950007556797937"><ele>429.50000000000006</ele><time>2026-04-11T05:17:17Z</time></trkpt><trkpt lat="45.78965412783037" lon="8.950129389977562"><ele>429.0</ele><time>2026-04-11T05:17:19Z</time></trkpt><trkpt lat="45.789671497695764" lon="8.95022862363646"><ele>428.5</ele><time>2026-04-11T05:17:21Z</time></trkpt><trkpt lat="45.789688942972454" lon="8.950325238367672"><ele>428.0</ele><time>2026-04-11T05:17:23Z</time></trkpt><trkpt lat="45.78970519860317" lon="8.950415150841183"><ele>427.50000000000006</ele><time>2026-04-11T05:17:25Z</time></trkpt><trkpt lat="45.78971673751938" lon="8.950540801720686"><ele>427.0</ele><time>2026-04-11T05:17:28Z</time></trkpt><trkpt lat="45.789735000402494" lon="8.950640807850416"><ele>427.0</ele><time>2026-04-11T05:17:31Z</time></trkpt><trkpt lat="45.78974807469188" lon="8.950751401135225"><ele>427.0</ele><time>2026-04-11T05:17:34Z</time></trkpt><trkpt lat="45.79001069998417" lon="8.950780352157302"><ele>427.0</ele><time>2026-04-11T05:17:36Z</time></trkpt><trkpt lat="45.790083819887094" lon="8.950833689954488"><ele>427.0</ele><time>2026-04-11T05:17:39Z</time></trkpt><trkpt lat="45.79016018906881" lon="8.950888727520136"><ele>426.1666666666667</ele><time>2026-04-11T05:17:42Z</time></trkpt><trkpt lat="45.79022262422047" lon="8.950933502003977"><ele>425.33333333333337</ele><time>2026-04-11T05:17:45Z</time></trkpt><trkpt lat="45.79030419809554" lon="8.951002760357824"><ele>424.5</ele><time>2026-04-11T05:17:48Z</time></trkpt><trkpt lat="45.79035731223735" lon="8.951062347841292"><ele>423.66666666666663</ele><time>2026-04-11T05:17:50Z</time></trkpt><trkpt lat="45.79041277861349" lon="8.951178709756032"><ele>422.8333333333333</ele><time>2026-04-11T05:17:52Z</time></trkpt><trkpt lat="45.790479315044685" lon="8.95129426632379"><ele>422.0</ele><time>2026-04-11T05:17:54Z</time></trkpt><trkpt lat="45.79055710602422" lon="8.951409294486028"><ele>422.0</ele><time>2026-04-11T05:17:56Z</time></trkpt><trkpt lat="45.79059202567583" lon="8.951524823078993"><ele>422.0</ele><time>2026-04-11T05:17:58Z</time></trkpt><trkpt lat="45.79062318199022" lon="8.951655850141336"><ele>422.0</ele><time>2026-04-11T05:18:00Z</time></trkpt><trkpt lat="45.79066563437108" lon="8.951780305405112"><ele>422.0</ele><time>2026-04-11T05:18:02Z</time></trkpt><trkpt lat="45.790707782298405" lon="8.951901973603768"><ele>422.0</ele><time>2026-04-11T05:18:04Z</time></trkpt><trkpt lat="45.790765063483846" lon="8.952001861000316"><ele>421.57142857142856</ele><time>2026-04-11T05:18:06Z</time></trkpt><trkpt lat="45.790795623490745" lon="8.952084802142883"><ele>421.14285714285717</ele><time>2026-04-11T05:18:08Z</time></trkpt><trkpt lat="45.79085231874862" lon="8.952146607312905"><ele>420.71428571428567</ele><time>2026-04-11T05:18:11Z</time></trkpt><trkpt lat="45.79091031169261" lon="8.952107615958306"><ele>420.2857142857143</ele><time>2026-04-11T05:18:14Z</time></trkpt><trkpt lat="45.790953919947356" lon="8.952029214255441"><ele>419.85714285714283</ele><time>2026-04-11T05:18:16Z</time></trkpt><trkpt lat="45.79101799165307" lon="8.951962731771111"><ele>419.4285714285714</ele><time>2026-04-11T05:18:18Z</time></trkpt><trkpt lat="45.79107164629973" lon="8.951889783235533"><ele>419.0</ele><time>2026-04-11T05:18:20Z</time></trkpt><trkpt lat="45.79111768070544" lon="8.95180626943762"><ele>418.8333333333333</ele><time>2026-04-11T05:18:22Z</time></trkpt><trkpt lat="45.79117663931022" lon="8.951730172488807"><ele>418.66666666666663</ele><time>2026-04-11T05:18:24Z</time></trkpt><trkpt lat="45.79121672786132" lon="8.951633836542628"><ele>418.5</ele><time>2026-04-11T05:18:26Z</time></trkpt><trkpt lat="45.79127956509009" lon="8.95154615576218"><ele>418.33333333333337</ele><time>2026-04-11T05:18:28Z</time></trkpt><trkpt lat="45.79132550672043" lon="8.951448235130067"><ele>418.1666666666667</ele><time>2026-04-11T05:18:30Z</time></trkpt><trkpt lat="45.79139124684918" lon="8.951367027370708"><ele>418.0</ele><time>2026-04-11T05:18:32Z</time></trkpt><trkpt lat="45.791434172845875" lon="8.951265644253466"><ele>418.33333333333337</ele><time>2026-04-11T05:18:34Z</time></trkpt><trkpt lat="45.79149267405462" lon="8.951163894011923"><ele>418.6666666666667</ele><time>2026-04-11T05:18:36Z</time></trkpt><trkpt lat="45.79154817737362" lon="8.951087501046501"><ele>419.0</ele><time>2026-04-11T05:18:38Z</time></trkpt><trkpt lat="45.79159985113643" lon="8.950986652875391"><ele>419.33333333333337</ele><time>2026-04-11T05:18:40Z</time></trkpt><trkpt lat="45.79164635474571" lon="8.950879987843065"><ele>419.6666666666667</ele><time>2026-04-11T05:18:42Z</time></trkpt><trkpt lat="45.79168557109497" lon="8.950790534512722"><ele>420.0</ele><time>2026-04-11T05:18:44Z</time></trkpt><trkpt lat="45.79175496695104" lon="8.950709376558821"><ele>420.5</ele><time>2026-04-11T05:18:46Z</time></trkpt><trkpt lat="45.79182088536482" lon="8.950598520925627"><ele>421.0</ele><time>2026-04-11T05:18:49Z</time></trkpt><trkpt lat="45.79187336420905" lon="8.95050943478905"><ele>421.5</ele><time>2026-04-11T05:18:51Z</time></trkpt><trkpt lat="45.791917153143615" lon="8.950425591950959"><ele>422.0</ele><time>2026-04-11T05:18:53Z</time></trkpt><trkpt lat="45.791985900327944" lon="8.950366344360116"><ele>422.5</ele><time>2026-04-11T05:18:55Z</time></trkpt><trkpt lat="45.79205637485602" lon="8.950309679874676"><ele>423.0</ele><time>2026-04-11T05:18:57Z</time></trkpt><trkpt lat="45.79213160671567" lon="8.950221185020881"><ele>422.3333333333333</ele><time>2026-04-11T05:18:59Z</time></trkpt><trkpt lat="45.79218417896937" lon="8.950171368463847"><ele>421.66666666666663</ele><time>2026-04-11T05:19:01Z</time></trkpt><trkpt lat="45.79227187604024" lon="8.95007225006143"><ele>421.0</ele><time>2026-04-11T05:19:04Z</time></trkpt><trkpt lat="45.792348037131305" lon="8.94999058310747"><ele>420.3333333333333</ele><time>2026-04-11T05:19:06Z</time></trkpt><trkpt lat="45.792382698284044" lon="8.949913468110633"><ele>419.66666666666663</ele><time>2026-04-11T05:19:08Z</time></trkpt><trkpt lat="45.79246514772351" lon="8.949865108685275"><ele>419.0</ele><time>2026-04-11T05:19:10Z</time></trkpt><trkpt lat="45.79254001186133" lon="8.949808550775126"><ele>418.99999999999994</ele><time>2026-04-11T05:19:12Z</time></trkpt><trkpt lat="45.792599821010185" lon="8.949731177050344"><ele>419.0</ele><time>2026-04-11T05:19:14Z</time></trkpt><trkpt lat="45.792668287323366" lon="8.949662123019566"><ele>419.0</ele><time>2026-04-11T05:19:16Z</time></trkpt><trkpt lat="45.79270186213275" lon="8.949582607758254"><ele>419.0</ele><time>2026-04-11T05:19:18Z</time></trkpt><trkpt lat="45.79277346262408" lon="8.949499869300963"><ele>418.99999999999994</ele><time>2026-04-11T05:19:20Z</time></trkpt><trkpt lat="45.79282790249343" lon="8.949435835314851"><ele>419.0</ele><time>2026-04-11T05:19:22Z</time></trkpt><trkpt lat="45.79288201701853" lon="8.949370465174527"><ele>419.2857142857143</ele><time>2026-04-11T05:19:24Z</time></trkpt><trkpt lat="45.792950503307345" lon="8.949307855798413"><ele>419.57142857142856</ele><time>2026-04-11T05:19:26Z</time></trkpt><trkpt lat="45.79301154676497" lon="8.949227928733269"><ele>419.8571428571429</ele><time>2026-04-11T05:19:28Z</time></trkpt><trkpt lat="45.79307336144027" lon="8.949196152371188"><ele>420.1428571428571</ele><time>2026-04-11T05:19:30Z</time></trkpt><trkpt lat="45.793139828865876" lon="8.949139649591586"><ele>420.42857142857144</ele><time>2026-04-11T05:19:32Z</time></trkpt><trkpt lat="45.793196111986404" lon="8.9490931062527"><ele>420.7142857142857</ele><time>2026-04-11T05:19:34Z</time></trkpt><trkpt lat="45.79325885941479" lon="8.949038978193165"><ele>421.0</ele><time>2026-04-11T05:19:37Z</time></trkpt><trkpt lat="45.793326141512985" lon="8.948955555959564"><ele>421.00000000000006</ele><time>2026-04-11T05:19:40Z</time></trkpt><trkpt lat="45.79337903839114" lon="8.94890368912193"><ele>421.0</ele><time>2026-04-11T05:19:42Z</time></trkpt><trkpt lat="45.793458701578636" lon="8.948827659755702"><ele>421.0</ele><time>2026-04-11T05:19:45Z</time></trkpt><trkpt lat="45.79351148997902" lon="8.948774454095497"><ele>421.0</ele><time>2026-04-11T05:19:47Z</time></trkpt><trkpt lat="45.79356437477784" lon="8.948721781443107"><ele>421.00000000000006</ele><time>2026-04-11T05:19:49Z</time></trkpt><trkpt lat="45.793619568816844" lon="8.94864839008443"><ele>421.0</ele><time>2026-04-11T05:19:51Z</time></trkpt><trkpt lat="45.793703953287306" lon="8.94859117339236"><ele>421.28571428571433</ele><time>2026-04-11T05:19:54Z</time></trkpt><trkpt lat="45.79375515801045" lon="8.948537736229895"><ele>421.57142857142856</ele><time>2026-04-11T05:19:56Z</time></trkpt><trkpt lat="45.793812786503175" lon="8.948463102891424"><ele>421.8571428571429</ele><time>2026-04-11T05:20:00Z</time></trkpt><trkpt lat="45.79386574485603" lon="8.94839143331196"><ele>422.14285714285717</ele><time>2026-04-11T05:20:04Z</time></trkpt><trkpt lat="45.79391579648483" lon="8.948326461755856"><ele>422.42857142857144</ele><time>2026-04-11T05:20:08Z</time></trkpt><trkpt lat="45.79398457568529" lon="8.948271481834725"><ele>422.7142857142857</ele><time>2026-04-11T05:20:10Z</time></trkpt><trkpt lat="45.794057004464484" lon="8.948242971456516"><ele>423.0</ele><time>2026-04-11T05:20:13Z</time></trkpt><trkpt lat="45.794156889890715" lon="8.948199980149557"><ele>423.0</ele><time>2026-04-11T05:20:16Z</time></trkpt><trkpt lat="45.794231806892036" lon="8.948138046515139"><ele>423.0</ele><time>2026-04-11T05:20:19Z</time></trkpt><trkpt lat="45.79428626129547" lon="8.948075917560356"><ele>423.0</ele><time>2026-04-11T05:20:21Z</time></trkpt><trkpt lat="45.794350965295344" lon="8.948026593109404"><ele>423.0</ele><time>2026-04-11T05:20:23Z</time></trkpt><trkpt lat="45.79441190281435" lon="8.947986301232932"><ele>423.0</ele><time>2026-04-11T05:20:25Z</time></trkpt><trkpt lat="45.794491354395184" lon="8.947925107740645"><ele>423.0</ele><time>2026-04-11T05:20:27Z</time></trkpt><trkpt lat="45.794564074268145" lon="8.947883956805278"><ele>422.6666666666667</ele><time>2026-04-11T05:20:29Z</time></trkpt><trkpt lat="45.794619421829324" lon="8.94782478106563"><ele>422.33333333333337</ele><time>2026-04-11T05:20:31Z</time></trkpt><trkpt lat="45.794683871451795" lon="8.947770043923228"><ele>422.0</ele><time>2026-04-11T05:20:33Z</time></trkpt><trkpt lat="45.794770943081346" lon="8.947695331147735"><ele>421.6666666666667</ele><time>2026-04-11T05:20:36Z</time></trkpt><trkpt lat="45.79483683859561" lon="8.94765502194883"><ele>421.33333333333337</ele><time>2026-04-11T05:20:38Z</time></trkpt><trkpt lat="45.794904962944834" lon="8.94758608748917"><ele>421.0</ele><time>2026-04-11T05:20:40Z</time></trkpt><trkpt lat="45.7949525723188" lon="8.947513307761065"><ele>421.00000000000006</ele><time>2026-04-11T05:20:42Z</time></trkpt><trkpt lat="45.79501058514748" lon="8.947475121354032"><ele>421.0</ele><time>2026-04-11T05:20:44Z</time></trkpt><trkpt lat="45.79507313523715" lon="8.947390626027493"><ele>421.0</ele><time>2026-04-11T05:20:46Z</time></trkpt><trkpt lat="45.79512773995959" lon="8.947334373358801"><ele>421.0</ele><time>2026-04-11T05:20:48Z</time></trkpt><trkpt lat="45.79519250623855" lon="8.947286764483554"><ele>421.00000000000006</ele><time>2026-04-11T05:20:50Z</time></trkpt><trkpt lat="45.79523827139693" lon="8.947203208731917"><ele>421.0</ele><time>2026-04-11T05:20:52Z</time></trkpt><trkpt lat="45.795317257768524" lon="8.947124925323864"><ele>420.83333333333337</ele><time>2026-04-11T05:20:55Z</time></trkpt><trkpt lat="45.79537503529219" lon="8.947051587071153"><ele>420.6666666666667</ele><time>2026-04-11T05:20:57Z</time></trkpt><trkpt lat="45.79543434835832" lon="8.946997154633067"><ele>420.5</ele><time>2026-04-11T05:20:59Z</time></trkpt><trkpt lat="45.795492094698865" lon="8.946885188064392"><ele>420.33333333333337</ele><time>2026-04-11T05:21:02Z</time></trkpt><trkpt lat="45.79553187340229" lon="8.946813927722568"><ele>420.1666666666667</ele><time>2026-04-11T05:21:04Z</time></trkpt><trkpt lat="45.79560591008903" lon="8.946757053564074"><ele>420.0</ele><time>2026-04-11T05:21:06Z</time></trkpt><trkpt lat="45.79567100906794" lon="8.946699209950506"><ele>420.0</ele><time>2026-04-11T05:21:08Z</time></trkpt><trkpt lat="45.79574138236242" lon="8.946611187649921"><ele>420.0</ele><time>2026-04-11T05:21:11Z</time></trkpt><trkpt lat="45.79579993379647" lon="8.946556198753928"><ele>420.0</ele><time>2026-04-11T05:21:14Z</time></trkpt><trkpt lat="45.795856215087355" lon="8.946510561270648"><ele>420.0</ele><time>2026-04-11T05:21:16Z</time></trkpt><trkpt lat="45.79592095475029" lon="8.946439549448515"><ele>420.0</ele><time>2026-04-11T05:21:19Z</time></trkpt><trkpt lat="45.795978870535684" lon="8.946372111275872"><ele>420.0</ele><time>2026-04-11T05:21:22Z</time></trkpt><trkpt lat="45.79603692527211" lon="8.946306959187563"><ele>419.8333333333333</ele><time>2026-04-11T05:21:25Z</time></trkpt><trkpt lat="45.79609290378108" lon="8.946234560884418"><ele>419.66666666666663</ele><time>2026-04-11T05:21:28Z</time></trkpt><trkpt lat="45.79614862960984" lon="8.946163888928861"><ele>419.5</ele><time>2026-04-11T05:21:30Z</time></trkpt><trkpt lat="45.796217958041936" lon="8.946080567562209"><ele>419.3333333333333</ele><time>2026-04-11T05:21:33Z</time></trkpt><trkpt lat="45.796275062276706" lon="8.945996979000482"><ele>419.16666666666663</ele><time>2026-04-11T05:21:36Z</time></trkpt><trkpt lat="45.79633431766089" lon="8.945917309959704"><ele>419.0</ele><time>2026-04-11T05:21:38Z</time></trkpt><trkpt lat="45.79638122131008" lon="8.945849671361682"><ele>418.99999999999994</ele><time>2026-04-11T05:21:40Z</time></trkpt><trkpt lat="45.79643742647627" lon="8.945783557823043"><ele>419.0</ele><time>2026-04-11T05:21:42Z</time></trkpt><trkpt lat="45.796491526846395" lon="8.945721979389356"><ele>419.0</ele><time>2026-04-11T05:21:44Z</time></trkpt><trkpt lat="45.79653847556577" lon="8.945644227498692"><ele>419.0</ele><time>2026-04-11T05:21:46Z</time></trkpt><trkpt lat="45.796598871457476" lon="8.945575194541311"><ele>418.99999999999994</ele><time>2026-04-11T05:21:48Z</time></trkpt><trkpt lat="45.79667061860536" lon="8.945478655440098"><ele>419.0</ele><time>2026-04-11T05:21:51Z</time></trkpt><trkpt lat="45.79672909416837" lon="8.945410259247645"><ele>418.99999999999994</ele><time>2026-04-11T05:21:53Z</time></trkpt><trkpt lat="45.79678317828234" lon="8.945348250185415"><ele>419.0</ele><time>2026-04-11T05:21:55Z</time></trkpt><trkpt lat="45.79688484674863" lon="8.945287993633936"><ele>419.0</ele><time>2026-04-11T05:21:58Z</time></trkpt><trkpt lat="45.7969375024194" lon="8.94520620020377"><ele>419.0</ele><time>2026-04-11T05:22:01Z</time></trkpt><trkpt lat="45.79702721530039" lon="8.945160531625334"><ele>418.99999999999994</ele><time>2026-04-11T05:22:03Z</time></trkpt><trkpt lat="45.797106556767325" lon="8.945094800162797"><ele>419.0</ele><time>2026-04-11T05:22:06Z</time></trkpt><trkpt lat="45.797173676700794" lon="8.945000273260911"><ele>419.3333333333333</ele><time>2026-04-11T05:22:09Z</time></trkpt><trkpt lat="45.79721604580348" lon="8.944902579213863"><ele>419.66666666666663</ele><time>2026-04-11T05:22:11Z</time></trkpt><trkpt lat="45.797270573161974" lon="8.944836844127364"><ele>420.0</ele><time>2026-04-11T05:22:13Z</time></trkpt><trkpt lat="45.79729011772772" lon="8.94474200240386"><ele>420.33333333333337</ele><time>2026-04-11T05:22:15Z</time></trkpt><trkpt lat="45.79735407567176" lon="8.944656347978238"><ele>420.6666666666667</ele><time>2026-04-11T05:22:17Z</time></trkpt><trkpt lat="45.79739543731616" lon="8.94451043672082"><ele>421.0</ele><time>2026-04-11T05:22:20Z</time></trkpt><trkpt lat="45.79743190945772" lon="8.944432429515247"><ele>421.00000000000006</ele><time>2026-04-11T05:22:22Z</time></trkpt><trkpt lat="45.79743657048282" lon="8.944336953851902"><ele>421.0</ele><time>2026-04-11T05:22:24Z</time></trkpt><trkpt lat="45.79748489635896" lon="8.944227338096354"><ele>421.0</ele><time>2026-04-11T05:22:26Z</time></trkpt><trkpt lat="45.79751344459291" lon="8.944141419121404"><ele>421.0</ele><time>2026-04-11T05:22:28Z</time></trkpt><trkpt lat="45.7975337417426" lon="8.94399497919745"><ele>421.00000000000006</ele><time>2026-04-11T05:22:31Z</time></trkpt><trkpt lat="45.79757737749662" lon="8.943885007405022"><ele>421.0</ele><time>2026-04-11T05:22:33Z</time></trkpt><trkpt lat="45.79762372237384" lon="8.943768211481876"><ele>420.4</ele><time>2026-04-11T05:22:35Z</time></trkpt><trkpt lat="45.797645556189785" lon="8.943657019281567"><ele>419.8</ele><time>2026-04-11T05:22:37Z</time></trkpt><trkpt lat="45.79766929093165" lon="8.943555395992385"><ele>419.2</ele><time>2026-04-11T05:22:39Z</time></trkpt><trkpt lat="45.79771315613955" lon="8.94342136732635"><ele>418.59999999999997</ele><time>2026-04-11T05:22:41Z</time></trkpt><trkpt lat="45.79776529577405" lon="8.94328174007717"><ele>418.0</ele><time>2026-04-11T05:22:43Z</time></trkpt><trkpt lat="45.79778896500927" lon="8.943113039041426"><ele>418.00000000000006</ele><time>2026-04-11T05:22:45Z</time></trkpt><trkpt lat="45.79783298360781" lon="8.94299710946512"><ele>418.0</ele><time>2026-04-11T05:22:47Z</time></trkpt><trkpt lat="45.79787666323816" lon="8.942888895108931"><ele>418.0</ele><time>2026-04-11T05:22:49Z</time></trkpt><trkpt lat="45.79787443637707" lon="8.942782415031573"><ele>418.0</ele><time>2026-04-11T05:22:51Z</time></trkpt><trkpt lat="45.79790542929625" lon="8.942702118004462"><ele>418.00000000000006</ele><time>2026-04-11T05:22:54Z</time></trkpt><trkpt lat="45.797942700721215" lon="8.942584620079193"><ele>418.0</ele><time>2026-04-11T05:22:58Z</time></trkpt><trkpt lat="45.79798531572106" lon="8.942478563818117"><ele>418.00000000000006</ele><time>2026-04-11T05:23:02Z</time></trkpt><trkpt lat="45.798036083226236" lon="8.942395508207877"><ele>418.0</ele><time>2026-04-11T05:23:06Z</time></trkpt><trkpt lat="45.79809088262605" lon="8.942483391880883"><ele>418.0</ele><time>2026-04-11T05:23:10Z</time></trkpt><trkpt lat="45.798153408385915" lon="8.942560040576723"><ele>418.0</ele><time>2026-04-11T05:23:13Z</time></trkpt><trkpt lat="45.79822372009844" lon="8.942628710794365"><ele>418.00000000000006</ele><time>2026-04-11T05:23:16Z</time></trkpt><trkpt lat="45.79827801935704" lon="8.942686548709103"><ele>418.0</ele><time>2026-04-11T05:23:18Z</time></trkpt><trkpt lat="45.7983387644938" lon="8.942733729798997"><ele>418.00000000000006</ele><time>2026-04-11T05:23:20Z</time></trkpt><trkpt lat="45.79841490781015" lon="8.942787610807983"><ele>418.0</ele><time>2026-04-11T05:23:22Z</time></trkpt><trkpt lat="45.79847767833828" lon="8.942832563462893"><ele>418.0</ele><time>2026-04-11T05:23:24Z</time></trkpt><trkpt lat="45.79854982925097" lon="8.942887716591656"><ele>418.0</ele><time>2026-04-11T05:23:26Z</time></trkpt><trkpt lat="45.79861912128642" lon="8.942934654148182"><ele>418.00000000000006</ele><time>2026-04-11T05:23:28Z</time></trkpt><trkpt lat="45.79869520378643" lon="8.94297599744672"><ele>418.0</ele><time>2026-04-11T05:23:30Z</time></trkpt><trkpt lat="45.79876138459372" lon="8.943025886952773"><ele>418.0</ele><time>2026-04-11T05:23:32Z</time></trkpt><trkpt lat="45.79883263794582" lon="8.943043313001928"><ele>418.0</ele><time>2026-04-11T05:23:34Z</time></trkpt><trkpt lat="45.7988714420296" lon="8.942963088396382"><ele>418.0</ele><time>2026-04-11T05:23:36Z</time></trkpt><trkpt lat="45.79889153245707" lon="8.942847836622287"><ele>418.0</ele><time>2026-04-11T05:23:38Z</time></trkpt><trkpt lat="45.798906697029516" lon="8.94273705967356"><ele>418.0</ele><time>2026-04-11T05:23:41Z</time></trkpt><trkpt lat="45.79891333122765" lon="8.942627389245228"><ele>418.0</ele><time>2026-04-11T05:23:43Z</time></trkpt><trkpt lat="45.79892784168494" lon="8.94253360075819"><ele>418.0</ele><time>2026-04-11T05:23:45Z</time></trkpt><trkpt lat="45.798958946408796" lon="8.94243987144039"><ele>418.0</ele><time>2026-04-11T05:23:47Z</time></trkpt><trkpt lat="45.79896885789731" lon="8.942337907963923"><ele>418.0</ele><time>2026-04-11T05:23:49Z</time></trkpt><trkpt lat="45.79898738584212" lon="8.942244856452689"><ele>418.0</ele><time>2026-04-11T05:23:51Z</time></trkpt><trkpt lat="45.7990069286385" lon="8.942146734489922"><ele>418.0</ele><time>2026-04-11T05:23:53Z</time></trkpt><trkpt lat="45.799026476597646" lon="8.942048103004897"><ele>418.0</ele><time>2026-04-11T05:23:55Z</time></trkpt><trkpt lat="45.79904746837527" lon="8.941957075619705"><ele>418.0</ele><time>2026-04-11T05:23:57Z</time></trkpt><trkpt lat="45.799084164510134" lon="8.941828235364602"><ele>418.0</ele><time>2026-04-11T05:24:00Z</time></trkpt><trkpt lat="45.79910927184956" lon="8.94173716060418"><ele>418.00000000000006</ele><time>2026-04-11T05:24:02Z</time></trkpt><trkpt lat="45.79912723819788" lon="8.941640445823534"><ele>418.0</ele><time>2026-04-11T05:24:04Z</time></trkpt><trkpt lat="45.799154951021336" lon="8.94151249081459"><ele>418.0</ele><time>2026-04-11T05:24:07Z</time></trkpt><trkpt lat="45.799178149744016" lon="8.941411997548181"><ele>418.0</ele><time>2026-04-11T05:24:09Z</time></trkpt><trkpt lat="45.79918886975274" lon="8.941319838433428"><ele>418.00000000000006</ele><time>2026-04-11T05:24:11Z</time></trkpt><trkpt lat="45.799199331341455" lon="8.941222304055872"><ele>418.0</ele><time>2026-04-11T05:24:13Z</time></trkpt><trkpt lat="45.7992102813661" lon="8.941094395128205"><ele>418.00000000000006</ele><time>2026-04-11T05:24:16Z</time></trkpt><trkpt lat="45.79923641087268" lon="8.940962247117636"><ele>418.0</ele><time>2026-04-11T05:24:19Z</time></trkpt><trkpt lat="45.79925856090942" lon="8.940862256078436"><ele>418.0</ele><time>2026-04-11T05:24:21Z</time></trkpt><trkpt lat="45.799284309194555" lon="8.940759272874528"><ele>418.0</ele><time>2026-04-11T05:24:23Z</time></trkpt><trkpt lat="45.79931241110701" lon="8.940657700332062"><ele>418.00000000000006</ele><time>2026-04-11T05:24:25Z</time></trkpt><trkpt lat="45.79933620824963" lon="8.940553702645785"><ele>418.0</ele><time>2026-04-11T05:24:27Z</time></trkpt><trkpt lat="45.79936024089078" lon="8.940452196900502"><ele>418.1666666666667</ele><time>2026-04-11T05:24:29Z</time></trkpt><trkpt lat="45.799384020704096" lon="8.94036118247386"><ele>418.33333333333337</ele><time>2026-04-11T05:24:31Z</time></trkpt><trkpt lat="45.79941069237525" lon="8.940273301054097"><ele>418.5</ele><time>2026-04-11T05:24:33Z</time></trkpt><trkpt lat="45.7994683683714" lon="8.940189883522766"><ele>418.66666666666663</ele><time>2026-04-11T05:24:35Z</time></trkpt><trkpt lat="45.799502590440376" lon="8.940073872120147"><ele>418.8333333333333</ele><time>2026-04-11T05:24:37Z</time></trkpt><trkpt lat="45.799530509408775" lon="8.939956519028158"><ele>419.0</ele><time>2026-04-11T05:24:39Z</time></trkpt><trkpt lat="45.79954315340188" lon="8.93982653078081"><ele>419.0</ele><time>2026-04-11T05:24:41Z</time></trkpt><trkpt lat="45.79958343459569" lon="8.93970842684623"><ele>419.0</ele><time>2026-04-11T05:24:43Z</time></trkpt><trkpt lat="45.79960866341847" lon="8.939586972724623"><ele>419.0</ele><time>2026-04-11T05:24:45Z</time></trkpt><trkpt lat="45.79962523342081" lon="8.939453053835614"><ele>419.0</ele><time>2026-04-11T05:24:47Z</time></trkpt><trkpt lat="45.7996735896197" lon="8.939338627234388"><ele>419.0</ele><time>2026-04-11T05:24:49Z</time></trkpt><trkpt lat="45.7997103443213" lon="8.939217597292966"><ele>418.66666666666663</ele><time>2026-04-11T05:24:51Z</time></trkpt><trkpt lat="45.79973609701797" lon="8.939098044775095"><ele>418.3333333333333</ele><time>2026-04-11T05:24:53Z</time></trkpt><trkpt lat="45.79978427930284" lon="8.938991752346187"><ele>418.0</ele><time>2026-04-11T05:24:55Z</time></trkpt><trkpt lat="45.79981954206243" lon="8.938885513808815"><ele>417.66666666666663</ele><time>2026-04-11T05:24:57Z</time></trkpt><trkpt lat="45.79985204190949" lon="8.938775739984957"><ele>417.3333333333333</ele><time>2026-04-11T05:24:59Z</time></trkpt><trkpt lat="45.79988544624399" lon="8.938654855468661"><ele>417.0</ele><time>2026-04-11T05:25:01Z</time></trkpt><trkpt lat="45.79991372024445" lon="8.938533379292487"><ele>416.20000000000005</ele><time>2026-04-11T05:25:03Z</time></trkpt><trkpt lat="45.79993815264646" lon="8.938377594199757"><ele>415.4</ele><time>2026-04-11T05:25:05Z</time></trkpt><trkpt lat="45.79997260517652" lon="8.938223239151363"><ele>414.6</ele><time>2026-04-11T05:25:07Z</time></trkpt><trkpt lat="45.79999250845856" lon="8.938069574000117"><ele>413.79999999999995</ele><time>2026-04-11T05:25:09Z</time></trkpt><trkpt lat="45.80001637307474" lon="8.937911430686688"><ele>413.0</ele><time>2026-04-11T05:25:11Z</time></trkpt><trkpt lat="45.80004679615718" lon="8.937750147387735"><ele>413.0</ele><time>2026-04-11T05:25:13Z</time></trkpt><trkpt lat="45.80008914092862" lon="8.937595042557911"><ele>413.0</ele><time>2026-04-11T05:25:15Z</time></trkpt><trkpt lat="45.8001438484631" lon="8.93744500206368"><ele>413.0</ele><time>2026-04-11T05:25:17Z</time></trkpt><trkpt lat="45.80017787965341" lon="8.93728367593897"><ele>413.0</ele><time>2026-04-11T05:25:19Z</time></trkpt><trkpt lat="45.800226982047846" lon="8.937127346079684"><ele>413.0</ele><time>2026-04-11T05:25:21Z</time></trkpt><trkpt lat="45.80025235538973" lon="8.937042845374712"><ele>413.0</ele><time>2026-04-11T05:25:22Z</time></trkpt><trkpt lat="45.80028984130047" lon="8.936897976988389"><ele>413.0</ele><time>2026-04-11T05:25:24Z</time></trkpt><trkpt lat="45.800334983892505" lon="8.936742562929842"><ele>413.0</ele><time>2026-04-11T05:25:26Z</time></trkpt><trkpt lat="45.80036895749273" lon="8.93665925624558"><ele>413.0</ele><time>2026-04-11T05:25:27Z</time></trkpt><trkpt lat="45.800413644041164" lon="8.936488828833644"><ele>413.0</ele><time>2026-04-11T05:25:29Z</time></trkpt><trkpt lat="45.800457830140154" lon="8.936369853331906"><ele>413.0</ele><time>2026-04-11T05:25:31Z</time></trkpt><trkpt lat="45.80048145496006" lon="8.93623848234121"><ele>413.0</ele><time>2026-04-11T05:25:33Z</time></trkpt><trkpt lat="45.80044416332166" lon="8.936140859924373"><ele>413.0</ele><time>2026-04-11T05:25:37Z</time></trkpt><trkpt lat="45.80034370011218" lon="8.936084800182426"><ele>413.0</ele><time>2026-04-11T05:25:40Z</time></trkpt><trkpt lat="45.80025583986437" lon="8.936058798521927"><ele>412.99999999999994</ele><time>2026-04-11T05:25:42Z</time></trkpt><trkpt lat="45.80018751233729" lon="8.936076591167897"><ele>413.0</ele><time>2026-04-11T05:25:43Z</time></trkpt><trkpt lat="45.800104615477515" lon="8.936071493564926"><ele>413.0</ele><time>2026-04-11T05:25:45Z</time></trkpt><trkpt lat="45.800015382416184" lon="8.936048333594576"><ele>413.0</ele><time>2026-04-11T05:25:47Z</time></trkpt><trkpt lat="45.79992224718545" lon="8.936029391871696"><ele>412.99999999999994</ele><time>2026-04-11T05:25:49Z</time></trkpt><trkpt lat="45.799828748833555" lon="8.936005572122099"><ele>413.0</ele><time>2026-04-11T05:25:51Z</time></trkpt><trkpt lat="45.799739773826175" lon="8.935990753024468"><ele>412.79999999999995</ele><time>2026-04-11T05:25:53Z</time></trkpt><trkpt lat="45.7996520539392" lon="8.935968888550994"><ele>412.6</ele><time>2026-04-11T05:25:55Z</time></trkpt><trkpt lat="45.799565706247044" lon="8.935948415894464"><ele>412.4</ele><time>2026-04-11T05:25:57Z</time></trkpt><trkpt lat="45.799486097322315" lon="8.935931241612655"><ele>412.20000000000005</ele><time>2026-04-11T05:25:59Z</time></trkpt><trkpt lat="45.79940627851677" lon="8.935903592183113"><ele>412.0</ele><time>2026-04-11T05:26:01Z</time></trkpt><trkpt lat="45.79942041457563" lon="8.935727822489186"><ele>410.0</ele><time>2026-04-11T05:26:05Z</time></trkpt><trkpt lat="45.7994371788518" lon="8.935611265010204"><ele>410.0</ele><time>2026-04-11T05:26:07Z</time></trkpt><trkpt lat="45.79945124331795" lon="8.9355125234881"><ele>410.0</ele><time>2026-04-11T05:26:09Z</time></trkpt></trkseg></trk></gpx>